Observation data for Menard on 01/18/2019      Previous  Date  Next       Current Mesonet Observations  Soil Data  Daily Summary Page  Observations in Plain Language
KMD1 180600Z 29001KT 05/04 A301 RMK A01 T00540039  RH  090%=      5-min Rain = 0
KMD1 180601Z 27001KT 05/04 A301 RMK A01 T00540039  RH  090%=      5-min Rain = 0
KMD1 180602Z 27001KT 05/04 A301 RMK A01 T00530038  RH  090%=      5-min Rain = 0
KMD1 180603Z 27001KT 05/04 A301 RMK A01 T00530038  RH  090%=      5-min Rain = 0
KMD1 180604Z 27001KT 05/04 A301 RMK A01 T00530038  RH  090%=      5-min Rain = 0
KMD1 180605Z 28001KT 05/04 A301 RMK A01 T00530037  RH  090%=      5-min Rain = 0
KMD1 180606Z 28000KT 05/04 A301 RMK A01 T00530037  RH  090%=      5-min Rain = 0
KMD1 180607Z 24001KT 05/04 A301 RMK A01 T00530038  RH  090%=      5-min Rain = 0
KMD1 180608Z 24001KT 05/04 A301 RMK A01 T00530038  RH  090%=      5-min Rain = 0
KMD1 180609Z 24001KT 05/04 A301 RMK A01 T00530038  RH  090%=      5-min Rain = 0
KMD1 180610Z 24001KT 05/04 A301 RMK A01 T00530038  RH  090%=      5-min Rain = 0
KMD1 180611Z 23001KT 05/04 A301 RMK A01 T00530038  RH  090%=      5-min Rain = 0
KMD1 180612Z 23001KT 05/04 A301 RMK A01 T00530038  RH  090%=      5-min Rain = 0
KMD1 180613Z 22002KT 05/04 A301 RMK A01 T00520037  RH  090%=      5-min Rain = 0
KMD1 180614Z 22002KT 05/04 A301 RMK A01 T00520037  RH  090%=      5-min Rain = 0
KMD1 180615Z 25002KT 05/04 A301 RMK A01 T00520037  RH  090%=      5-min Rain = 0
KMD1 180616Z 26001KT 05/04 A301 RMK A01 T00510037  RH  090%=      5-min Rain = 0
KMD1 180617Z 25001KT 05/04 A301 RMK A01 T00510037  RH  090%=      5-min Rain = 0
KMD1 180618Z 26001KT 05/04 A301 RMK A01 T00510037  RH  091%=      5-min Rain = 0
KMD1 180619Z 29001KT 05/04 A301 RMK A01 T00500036  RH  091%=      5-min Rain = 0
KMD1 180620Z 26001KT 05/04 A301 RMK A01 T00500036  RH  091%=      5-min Rain = 0
KMD1 180621Z 26001KT 05/04 A301 RMK A01 T00500035  RH  091%=      5-min Rain = 0
KMD1 180622Z 26001KT 05/04 A301 RMK A01 T00490035  RH  091%=      5-min Rain = 0
KMD1 180623Z 25002KT 05/04 A301 RMK A01 T00490035  RH  091%=      5-min Rain = 0
KMD1 180624Z 25002KT 05/04 A301 RMK A01 T00480035  RH  091%=      5-min Rain = 0
KMD1 180625Z 25002KT 05/04 A301 RMK A01 T00480036  RH  091%=      5-min Rain = 0
KMD1 180626Z 25003KT 05/04 A301 RMK A01 T00490036  RH  092%=      5-min Rain = 0
KMD1 180627Z 25003KT 05/04 A301 RMK A01 T00480036  RH  092%=      5-min Rain = 0
KMD1 180628Z 26003KT 05/04 A301 RMK A01 T00490036  RH  092%=      5-min Rain = 0
KMD1 180629Z 27003KT 05/04 A301 RMK A01 T00480036  RH  092%=      5-min Rain = 0
KMD1 180630Z 27003KT 05/04 A301 RMK A01 T00490036  RH  092%=      5-min Rain = 0
KMD1 180631Z 27002KT 05/04 A301 RMK A01 T00480035  RH  091%=      5-min Rain = 0
KMD1 180632Z 27003KT 05/04 A301 RMK A01 T00480035  RH  091%=      5-min Rain = 0
KMD1 180633Z 27003KT 05/04 A301 RMK A01 T00480035  RH  091%=      5-min Rain = 0
KMD1 180634Z 26003KT 05/03 A301 RMK A01 T00480034  RH  091%=      5-min Rain = 0
KMD1 180635Z 26003KT 05/04 A301 RMK A01 T00480035  RH  092%=      5-min Rain = 0
KMD1 180636Z 25002KT 05/04 A301 RMK A01 T00480035  RH  092%=      5-min Rain = 0
KMD1 180637Z 25002KT 05/04 A301 RMK A01 T00480035  RH  092%=      5-min Rain = 0
KMD1 180638Z 25002KT 05/04 A301 RMK A01 T00480035  RH  091%=      5-min Rain = 0
KMD1 180639Z 24002KT 05/04 A301 RMK A01 T00480035  RH  091%=      5-min Rain = 0
KMD1 180640Z 24002KT 05/04 A301 RMK A01 T00490035  RH  091%=      5-min Rain = 0
KMD1 180641Z 24001KT 05/04 A301 RMK A01 T00480035  RH  091%=      5-min Rain = 0
KMD1 180642Z 24001KT 05/04 A301 RMK A01 T00480035  RH  091%=      5-min Rain = 0
KMD1 180643Z 24001KT 05/04 A3009 RMK A01 T00490035  RH  091%=      5-min Rain = 0
KMD1 180644Z 24000KT 05/04 A3009 RMK A01 T00480035  RH  091%=      5-min Rain = 0
KMD1 180645Z 24001KT 05/04 A3009 RMK A01 T00480035  RH  091%=      5-min Rain = 0
KMD1 180646Z 26001KT 05/04 A3009 RMK A01 T00480035  RH  091%=      5-min Rain = 0
KMD1 180647Z 27001KT 05/04 A3009 RMK A01 T00490035  RH  091%=      5-min Rain = 0
KMD1 180648Z 27001KT 05/04 A3009 RMK A01 T00480035  RH  091%=      5-min Rain = 0
KMD1 180649Z 27001KT 05/04 A3009 RMK A01 T00480035  RH  091%=      5-min Rain = 0
KMD1 180650Z 28001KT 05/04 A3009 RMK A01 T00490036  RH  091%=      5-min Rain = 0
KMD1 180651Z 28001KT 05/04 A3009 RMK A01 T00490036  RH  091%=      5-min Rain = 0
KMD1 180652Z 28002KT 05/04 A3009 RMK A01 T00490036  RH  091%=      5-min Rain = 0
KMD1 180653Z 28001KT 05/04 A3009 RMK A01 T00490036  RH  091%=      5-min Rain = 0
KMD1 180654Z 28002KT 05/04 A3009 RMK A01 T00500037  RH  091%=      5-min Rain = 0
KMD1 180655Z 27002KT 05/04 A3009 RMK A01 T00500036  RH  091%=      5-min Rain = 0
KMD1 180656Z 26002KT 05/04 A3009 RMK A01 T00500036  RH  091%=      5-min Rain = 0
KMD1 180657Z 27003KT 05/04 A3009 RMK A01 T00500036  RH  091%=      5-min Rain = 0
KMD1 180658Z 27002KT 05/04 A3009 RMK A01 T00500036  RH  090%=      5-min Rain = 0
KMD1 180659Z 28003KT 05/04 A3009 RMK A01 T00490035  RH  091%=      5-min Rain = 0
KMD1 180700Z 27003KT 05/04 A3009 RMK A01 T00490035  RH  091%=      5-min Rain = 0
KMD1 180701Z 28003KT 05/04 A3009 RMK A01 T00480035  RH  091%=      5-min Rain = 0
KMD1 180702Z 27003KT 05/04 A3009 RMK A01 T00480035  RH  091%=      5-min Rain = 0
KMD1 180703Z 27004KT 05/04 A3009 RMK A01 T00480035  RH  092%=      5-min Rain = 0
KMD1 180704Z 27003KT 05/04 A3009 RMK A01 T00470036  RH  092%=      5-min Rain = 0
KMD1 180705Z 28003KT 05/04 A3009 RMK A01 T00480036  RH  092%=      5-min Rain = 0
KMD1 180706Z 27003KT 05/04 A3009 RMK A01 T00480037  RH  093%=      5-min Rain = 0
KMD1 180707Z 28003KT 05/04 A3009 RMK A01 T00480037  RH  093%=      5-min Rain = 0
KMD1 180708Z 27004KT 05/04 A3009 RMK A01 T00480038  RH  093%=      5-min Rain = 0
KMD1 180709Z 27004KT 05/04 A3009 RMK A01 T00490039  RH  093%=      5-min Rain = 0
KMD1 180710Z 26004KT 05/04 A3009 RMK A01 T00490039  RH  093%=      5-min Rain = 0
KMD1 180711Z 26004KT 05/04 A3008 RMK A01 T00500040  RH  093%=      5-min Rain = 0
KMD1 180712Z 25004KT 05/04 A3008 RMK A01 T00510040  RH  092%=      5-min Rain = 0
KMD1 180713Z 25003KT 05/04 A3008 RMK A01 T00520040  RH  092%=      5-min Rain = 0
KMD1 180714Z 25003KT 05/04 A3008 RMK A01 T00530039  RH  091%=      5-min Rain = 0
KMD1 180715Z 26004KT 05/04 A3008 RMK A01 T00540039  RH  090%=      5-min Rain = 0
KMD1 180716Z 26004KT 06/04 A3008 RMK A01 T00550038  RH  089%=      5-min Rain = 0
KMD1 180717Z 26004KT 06/04 A3008 RMK A01 T00550038  RH  089%=      5-min Rain = 0
KMD1 180718Z 27004KT 06/04 A3008 RMK A01 T00550038  RH  089%=      5-min Rain = 0
KMD1 180719Z 26004KT 06/04 A3008 RMK A01 T00550038  RH  089%=      5-min Rain = 0
KMD1 180720Z 26004KT 06/04 A3008 RMK A01 T00550038  RH  089%=      5-min Rain = 0
KMD1 180721Z 26004KT 06/04 A3008 RMK A01 T00550038  RH  089%=      5-min Rain = 0
KMD1 180722Z 25003KT 06/04 A3007 RMK A01 T00550038  RH  089%=      5-min Rain = 0
KMD1 180723Z 25003KT 05/04 A3007 RMK A01 T00540037  RH  089%=      5-min Rain = 0
KMD1 180724Z 25003KT 05/04 A3007 RMK A01 T00530037  RH  090%=      5-min Rain = 0
KMD1 180725Z 25003KT 05/04 A3007 RMK A01 T00530037  RH  090%=      5-min Rain = 0
KMD1 180726Z 25004KT 05/04 A3007 RMK A01 T00520037  RH  090%=      5-min Rain = 0
KMD1 180727Z 25003KT 05/04 A3007 RMK A01 T00520038  RH  090%=      5-min Rain = 0
KMD1 180728Z 25004KT 05/04 A3007 RMK A01 T00520038  RH  091%=      5-min Rain = 0
KMD1 180729Z 25004KT 05/04 A3007 RMK A01 T00520038  RH  091%=      5-min Rain = 0
KMD1 180730Z 26004KT 05/04 A3007 RMK A01 T00530039  RH  091%=      5-min Rain = 0
KMD1 180731Z 26004KT 05/04 A3007 RMK A01 T00530039  RH  091%=      5-min Rain = 0
KMD1 180732Z 26004KT 05/04 A3007 RMK A01 T00530039  RH  090%=      5-min Rain = 0
KMD1 180733Z 26004KT 05/04 A3007 RMK A01 T00540039  RH  090%=      5-min Rain = 0
KMD1 180734Z 25003KT 05/04 A3007 RMK A01 T00540039  RH  090%=      5-min Rain = 0
KMD1 180735Z 26003KT 06/04 A3007 RMK A01 T00550039  RH  090%=      5-min Rain = 0
KMD1 180736Z 26003KT 06/04 A3007 RMK A01 T00550039  RH  089%=      5-min Rain = 0
KMD1 180737Z 27003KT 06/04 A3006 RMK A01 T00560039  RH  089%=      5-min Rain = 0
KMD1 180738Z 28003KT 06/04 A3006 RMK A01 T00560039  RH  088%=      5-min Rain = 0
KMD1 180739Z 27003KT 06/04 A3006 RMK A01 T00560038  RH  088%=      5-min Rain = 0
KMD1 180740Z 28003KT 06/04 A3006 RMK A01 T00550038  RH  089%=      5-min Rain = 0
KMD1 180741Z 28003KT 06/04 A3006 RMK A01 T00550039  RH  089%=      5-min Rain = 0
KMD1 180742Z 28003KT 05/04 A3006 RMK A01 T00540039  RH  090%=      5-min Rain = 0
KMD1 180743Z 29003KT 05/04 A3006 RMK A01 T00540040  RH  090%=      5-min Rain = 0
KMD1 180744Z 29003KT 05/04 A3006 RMK A01 T00540041  RH  091%=      5-min Rain = 0
KMD1 180745Z 29004KT 06/04 A3006 RMK A01 T00550041  RH  091%=      5-min Rain = 0
KMD1 180746Z 30004KT 06/04 A3006 RMK A01 T00550042  RH  091%=      5-min Rain = 0
KMD1 180747Z 30003KT 06/04 A3006 RMK A01 T00550042  RH  091%=      5-min Rain = 0
KMD1 180748Z 31002KT 06/04 A3006 RMK A01 T00550042  RH  091%=      5-min Rain = 0
KMD1 180749Z 32002KT 06/04 A3006 RMK A01 T00550042  RH  091%=      5-min Rain = 0
KMD1 180750Z 32001KT 06/04 A3006 RMK A01 T00560042  RH  091%=      5-min Rain = 0
KMD1 180751Z 31002KT 06/04 A3006 RMK A01 T00550041  RH  091%=      5-min Rain = 0
KMD1 180752Z 31002KT 06/04 A3006 RMK A01 T00550041  RH  091%=      5-min Rain = 0
KMD1 180753Z 29002KT 06/04 A3006 RMK A01 T00550042  RH  091%=      5-min Rain = 0
KMD1 180754Z 29002KT 06/04 A3006 RMK A01 T00560042  RH  091%=      5-min Rain = 0
KMD1 180755Z 29002KT 06/04 A3006 RMK A01 T00560042  RH  091%=      5-min Rain = 0
KMD1 180756Z 27002KT 06/04 A3006 RMK A01 T00560042  RH  091%=      5-min Rain = 0
KMD1 180757Z 25001KT 06/04 A3006 RMK A01 T00560042  RH  091%=      5-min Rain = 0
KMD1 180758Z 27002KT 06/04 A3005 RMK A01 T00560043  RH  091%=      5-min Rain = 0
KMD1 180759Z 25001KT 06/04 A3005 RMK A01 T00560043  RH  091%=      5-min Rain = 0
KMD1 180800Z 24002KT 06/04 A3005 RMK A01 T00560042  RH  091%=      5-min Rain = 0
KMD1 180801Z 20002KT 06/04 A3005 RMK A01 T00570043  RH  091%=      5-min Rain = 0
KMD1 180802Z 19002KT 06/04 A3005 RMK A01 T00570043  RH  090%=      5-min Rain = 0
KMD1 180803Z 18002KT 06/04 A3005 RMK A01 T00570042  RH  090%=      5-min Rain = 0
KMD1 180804Z 19001KT 06/04 A3006 RMK A01 T00570043  RH  090%=      5-min Rain = 0
KMD1 180805Z 18001KT 06/04 A3006 RMK A01 T00570043  RH  091%=      5-min Rain = 0
KMD1 180806Z 20001KT 06/04 A3006 RMK A01 T00560042  RH  091%=      5-min Rain = 0
KMD1 180807Z 19001KT 06/04 A3006 RMK A01 T00550042  RH  091%=      5-min Rain = 0
KMD1 180808Z 18001KT 06/04 A3006 RMK A01 T00550042  RH  091%=      5-min Rain = 0
KMD1 180809Z 17001KT 06/04 A3006 RMK A01 T00550042  RH  091%=      5-min Rain = 0
KMD1 180810Z 16001KT 05/04 A3005 RMK A01 T00540042  RH  092%=      5-min Rain = 0
KMD1 180811Z 16001KT 05/04 A3005 RMK A01 T00540042  RH  092%=      5-min Rain = 0
KMD1 180812Z 15001KT 05/04 A3005 RMK A01 T00540042  RH  092%=      5-min Rain = 0
KMD1 180813Z 14000KT 06/04 A3005 RMK A01 T00550042  RH  092%=      5-min Rain = 0
KMD1 180814Z 13000KT 05/04 A3005 RMK A01 T00540042  RH  092%=      5-min Rain = 0
KMD1 180815Z 00000KT 05/04 A3005 RMK A01 T00540042  RH  092%=      5-min Rain = 0
KMD1 180816Z 00000KT 05/04 A3005 RMK A01 T00540042  RH  092%=      5-min Rain = 0
KMD1 180817Z 00000KT 06/04 A3005 RMK A01 T00550043  RH  092%=      5-min Rain = 0
KMD1 180818Z 00000KT 06/04 A3005 RMK A01 T00560043  RH  091%=      5-min Rain = 0
KMD1 180819Z 04000KT 06/04 A3005 RMK A01 T00560043  RH  091%=      5-min Rain = 0
KMD1 180820Z 03001KT 06/04 A3005 RMK A01 T00560043  RH  091%=      5-min Rain = 0
KMD1 180821Z 01001KT 06/04 A3005 RMK A01 T00560043  RH  091%=      5-min Rain = 0
KMD1 180822Z 01001KT 06/04 A3005 RMK A01 T00570043  RH  091%=      5-min Rain = 0
KMD1 180823Z 00001KT 06/04 A3005 RMK A01 T00570043  RH  090%=      5-min Rain = 0
KMD1 180824Z 00001KT 06/04 A3005 RMK A01 T00570042  RH  090%=      5-min Rain = 0
KMD1 180825Z 00001KT 06/04 A3005 RMK A01 T00580043  RH  090%=      5-min Rain = 0
KMD1 180826Z 00001KT 06/04 A3005 RMK A01 T00580043  RH  090%=      5-min Rain = 0
KMD1 180827Z 36001KT 06/04 A3005 RMK A01 T00580043  RH  090%=      5-min Rain = 0
KMD1 180828Z 34001KT 06/04 A3005 RMK A01 T00590043  RH  089%=      5-min Rain = 0
KMD1 180829Z 33001KT 06/04 A3005 RMK A01 T00590043  RH  089%=      5-min Rain = 0
KMD1 180830Z 33001KT 06/04 A3005 RMK A01 T00590042  RH  089%=      5-min Rain = 0
KMD1 180831Z 32001KT 06/04 A3005 RMK A01 T00590041  RH  088%=      5-min Rain = 0
KMD1 180832Z 33001KT 06/04 A3005 RMK A01 T00590041  RH  088%=      5-min Rain = 0
KMD1 180833Z 33002KT 06/04 A3005 RMK A01 T00590042  RH  088%=      5-min Rain = 0
KMD1 180834Z 33002KT 06/04 A3005 RMK A01 T00600042  RH  088%=      5-min Rain = 0
KMD1 180835Z 32002KT 06/04 A3005 RMK A01 T00610043  RH  088%=      5-min Rain = 0
KMD1 180836Z 31002KT 06/04 A3005 RMK A01 T00610043  RH  089%=      5-min Rain = 0
KMD1 180837Z 31001KT 06/04 A3005 RMK A01 T00610044  RH  089%=      5-min Rain = 0
KMD1 180838Z 32001KT 06/04 A3005 RMK A01 T00610044  RH  089%=      5-min Rain = 0
KMD1 180839Z 32001KT 06/04 A3005 RMK A01 T00610044  RH  089%=      5-min Rain = 0
KMD1 180840Z 32001KT 06/04 A3005 RMK A01 T00610044  RH  089%=      5-min Rain = 0
KMD1 180841Z 31001KT 06/04 A3005 RMK A01 T00610044  RH  089%=      5-min Rain = 0
KMD1 180842Z 31001KT 06/05 A3005 RMK A01 T00620045  RH  089%=      5-min Rain = 0
KMD1 180843Z 32001KT 06/05 A3005 RMK A01 T00620045  RH  089%=      5-min Rain = 0
KMD1 180844Z 31001KT 06/05 A3005 RMK A01 T00620045  RH  089%=      5-min Rain = 0
KMD1 180845Z 33002KT 06/05 A3005 RMK A01 T00620046  RH  089%=      5-min Rain = 0
KMD1 180846Z 35001KT 06/05 A3005 RMK A01 T00630046  RH  089%=      5-min Rain = 0
KMD1 180847Z 35002KT 06/05 A3005 RMK A01 T00640047  RH  089%=      5-min Rain = 0
KMD1 180848Z 36002KT 07/05 A3005 RMK A01 T00650048  RH  089%=      5-min Rain = 0
KMD1 180849Z 35002KT 07/05 A3005 RMK A01 T00660048  RH  088%=      5-min Rain = 0
KMD1 180850Z 35001KT 07/05 A3005 RMK A01 T00680049  RH  088%=      5-min Rain = 0
KMD1 180851Z 35001KT 07/05 A3005 RMK A01 T00690049  RH  087%=      5-min Rain = 0
KMD1 180852Z 36001KT 07/05 A3005 RMK A01 T00700049  RH  087%=      5-min Rain = 0
KMD1 180853Z 36001KT 07/05 A3005 RMK A01 T00710049  RH  086%=      5-min Rain = 0
KMD1 180854Z 00002KT 07/05 A3005 RMK A01 T00710050  RH  086%=      5-min Rain = 0
KMD1 180855Z 36001KT 07/05 A3005 RMK A01 T00710050  RH  086%=      5-min Rain = 0
KMD1 180856Z 35001KT 07/05 A3005 RMK A01 T00720050  RH  086%=      5-min Rain = 0
KMD1 180857Z 32001KT 07/05 A3005 RMK A01 T00710050  RH  087%=      5-min Rain = 0
KMD1 180858Z 32001KT 07/05 A3005 RMK A01 T00710050  RH  087%=      5-min Rain = 0
KMD1 180859Z 32001KT 07/05 A3005 RMK A01 T00700051  RH  088%=      5-min Rain = 0
KMD1 180900Z 33001KT 07/05 A3005 RMK A01 T00700051  RH  088%=      5-min Rain = 0
KMD1 180901Z 32001KT 07/05 A3005 RMK A01 T00690051  RH  088%=      5-min Rain = 0
KMD1 180902Z 32001KT 07/05 A3005 RMK A01 T00690051  RH  088%=      5-min Rain = 0
KMD1 180903Z 31001KT 07/05 A3005 RMK A01 T00690051  RH  089%=      5-min Rain = 0
KMD1 180904Z 30001KT 07/05 A3005 RMK A01 T00690051  RH  089%=      5-min Rain = 0
KMD1 180905Z 31002KT 07/05 A3005 RMK A01 T00690051  RH  088%=      5-min Rain = 0
KMD1 180906Z 31001KT 07/05 A3005 RMK A01 T00690051  RH  088%=      5-min Rain = 0
KMD1 180907Z 31002KT 07/05 A3005 RMK A01 T00690051  RH  088%=      5-min Rain = 0
KMD1 180908Z 31002KT 07/05 A3005 RMK A01 T00690051  RH  088%=      5-min Rain = 0
KMD1 180909Z 30002KT 07/05 A3005 RMK A01 T00690052  RH  089%=      5-min Rain = 0
KMD1 180910Z 29002KT 07/05 A3005 RMK A01 T00690053  RH  090%=      5-min Rain = 0
KMD1 180911Z 29001KT 07/05 A3004 RMK A01 T00690054  RH  090%=      5-min Rain = 0
KMD1 180912Z 28001KT 07/06 A3004 RMK A01 T00690055  RH  091%=      5-min Rain = 0
KMD1 180913Z 27001KT 07/06 A3004 RMK A01 T00700056  RH  091%=      5-min Rain = 0
KMD1 180914Z 27001KT 07/06 A3004 RMK A01 T00700057  RH  091%=      5-min Rain = 0
KMD1 180915Z 28001KT 07/06 A3004 RMK A01 T00710057  RH  091%=      5-min Rain = 0
KMD1 180916Z 28001KT 07/06 A3004 RMK A01 T00700056  RH  091%=      5-min Rain = 0
KMD1 180917Z 27001KT 07/06 A3004 RMK A01 T00700055  RH  090%=      5-min Rain = 0
KMD1 180918Z 28001KT 07/05 A3004 RMK A01 T00700054  RH  090%=      5-min Rain = 0
KMD1 180919Z 29000KT 07/05 A3004 RMK A01 T00690053  RH  089%=      5-min Rain = 0
KMD1 180920Z 32000KT 07/05 A3004 RMK A01 T00680051  RH  089%=      5-min Rain = 0
KMD1 180921Z 29000KT 07/05 A3004 RMK A01 T00680051  RH  089%=      5-min Rain = 0
KMD1 180922Z 30001KT 07/05 A3004 RMK A01 T00680051  RH  089%=      5-min Rain = 0
KMD1 180923Z 31001KT 07/05 A3004 RMK A01 T00670050  RH  089%=      5-min Rain = 0
KMD1 180924Z 32000KT 07/05 A3003 RMK A01 T00670050  RH  089%=      5-min Rain = 0
KMD1 180925Z 00000KT 07/05 A3003 RMK A01 T00680050  RH  088%=      5-min Rain = 0
KMD1 180926Z 00000KT 07/05 A3003 RMK A01 T00680050  RH  088%=      5-min Rain = 0
KMD1 180927Z 25000KT 07/05 A3003 RMK A01 T00680051  RH  088%=      5-min Rain = 0
KMD1 180928Z 00000KT 07/05 A3003 RMK A01 T00690051  RH  089%=      5-min Rain = 0
KMD1 180929Z 00000KT 07/05 A3003 RMK A01 T00690051  RH  089%=      5-min Rain = 0
KMD1 180930Z 23001KT 07/05 A3003 RMK A01 T00690051  RH  089%=      5-min Rain = 0
KMD1 180931Z 23000KT 07/05 A3003 RMK A01 T00690051  RH  089%=      5-min Rain = 0
KMD1 180932Z 24001KT 07/05 A3003 RMK A01 T00680051  RH  089%=      5-min Rain = 0
KMD1 180933Z 23001KT 07/05 A3003 RMK A01 T00690051  RH  089%=      5-min Rain = 0
KMD1 180934Z 23002KT 07/05 A3003 RMK A01 T00690052  RH  089%=      5-min Rain = 0
KMD1 180935Z 24002KT 07/05 A3003 RMK A01 T00690053  RH  089%=      5-min Rain = 0
KMD1 180936Z 23002KT 07/05 A3003 RMK A01 T00690054  RH  090%=      5-min Rain = 0
KMD1 180937Z 23002KT 07/05 A3003 RMK A01 T00690053  RH  090%=      5-min Rain = 0
KMD1 180938Z 23002KT 07/05 A3003 RMK A01 T00690053  RH  090%=      5-min Rain = 0
KMD1 180939Z 23002KT 07/05 A3003 RMK A01 T00690053  RH  090%=      5-min Rain = 0
KMD1 180940Z 23002KT 07/05 A3003 RMK A01 T00690053  RH  090%=      5-min Rain = 0
KMD1 180941Z 23003KT 07/05 A3003 RMK A01 T00680053  RH  090%=      5-min Rain = 0
KMD1 180942Z 23002KT 07/05 A3003 RMK A01 T00680053  RH  090%=      5-min Rain = 0
KMD1 180943Z 23002KT 07/05 A3002 RMK A01 T00680053  RH  090%=      5-min Rain = 0
KMD1 180944Z 22003KT 07/05 A3002 RMK A01 T00670052  RH  090%=      5-min Rain = 0
KMD1 180945Z 22003KT 07/05 A3002 RMK A01 T00660051  RH  090%=      5-min Rain = 0
KMD1 180946Z 23003KT 07/05 A3002 RMK A01 T00650050  RH  090%=      5-min Rain = 0
KMD1 180947Z 23003KT 07/05 A3002 RMK A01 T00650050  RH  090%=      5-min Rain = 0
KMD1 180948Z 22002KT 07/05 A3002 RMK A01 T00650050  RH  091%=      5-min Rain = 0
KMD1 180949Z 23003KT 06/05 A3002 RMK A01 T00640050  RH  091%=      5-min Rain = 0
KMD1 180950Z 22002KT 07/05 A3002 RMK A01 T00650051  RH  091%=      5-min Rain = 0
KMD1 180951Z 24002KT 07/05 A3001 RMK A01 T00650051  RH  091%=      5-min Rain = 0
KMD1 180952Z 23003KT 07/05 A3001 RMK A01 T00650051  RH  091%=      5-min Rain = 0
KMD1 180953Z 24003KT 07/05 A3001 RMK A01 T00650052  RH  092%=      5-min Rain = 0
KMD1 180954Z 24003KT 07/05 A3001 RMK A01 T00660054  RH  092%=      5-min Rain = 0
KMD1 180955Z 24004KT 07/06 A3001 RMK A01 T00670056  RH  092%=      5-min Rain = 0
KMD1 180956Z 25003KT 07/06 A3001 RMK A01 T00710060  RH  093%=      5-min Rain = 0
KMD1 180957Z 25003KT 07/06 A3001 RMK A01 T00730061  RH  092%=      5-min Rain = 0
KMD1 180958Z 25003KT 08/06 A3001 RMK A01 T00750061  RH  091%=      5-min Rain = 0
KMD1 180959Z 24003KT 08/07 A3001 RMK A01 T00780065  RH  091%=      5-min Rain = 0
KMD1 181000Z 25003KT 08/07 A3001 RMK A01 T00820067  RH  091%=      5-min Rain = 0
KMD1 181001Z 26003KT 08/07 A3001 RMK A01 T00840066  RH  088%=      5-min Rain = 0
KMD1 181002Z 26003KT 09/07 A3001 RMK A01 T00850066  RH  088%=      5-min Rain = 0
KMD1 181003Z 25003KT 09/07 A3002 RMK A01 T00860067  RH  088%=      5-min Rain = 0
KMD1 181004Z 25003KT 09/07 A3002 RMK A01 T00870068  RH  088%=      5-min Rain = 0
KMD1 181005Z 25003KT 09/07 A3001 RMK A01 T00900071  RH  088%=      5-min Rain = 0
KMD1 181006Z 27003KT 09/07 A3001 RMK A01 T00920072  RH  087%=      5-min Rain = 0
KMD1 181007Z 26003KT 09/07 A3001 RMK A01 T00940071  RH  085%=      5-min Rain = 0
KMD1 181008Z 25003KT 09/07 A3001 RMK A01 T00940069  RH  084%=      5-min Rain = 0
KMD1 181009Z 26002KT 10/07 A3001 RMK A01 T00950070  RH  084%=      5-min Rain = 0
KMD1 181010Z 26002KT 10/07 A3001 RMK A01 T00960069  RH  084%=      5-min Rain = 0
KMD1 181011Z 25002KT 10/07 A3001 RMK A01 T00960069  RH  083%=      5-min Rain = 0
KMD1 181012Z 25003KT 10/07 A3001 RMK A01 T00960070  RH  083%=      5-min Rain = 0
KMD1 181013Z 25002KT 10/07 A3001 RMK A01 T00960069  RH  083%=      5-min Rain = 0
KMD1 181014Z 25002KT 10/07 A3001 RMK A01 T00960069  RH  084%=      5-min Rain = 0
KMD1 181015Z 25002KT 10/07 A3001 RMK A01 T00960070  RH  084%=      5-min Rain = 0
KMD1 181016Z 24002KT 10/07 A3001 RMK A01 T00960070  RH  084%=      5-min Rain = 0
KMD1 181017Z 24003KT 10/07 A3001 RMK A01 T00960070  RH  084%=      5-min Rain = 0
KMD1 181018Z 24002KT 10/07 A3001 RMK A01 T00960070  RH  084%=      5-min Rain = 0
KMD1 181019Z 24003KT 10/07 A3001 RMK A01 T00960070  RH  084%=      5-min Rain = 0
KMD1 181020Z 24004KT 10/07 A3001 RMK A01 T00960069  RH  083%=      5-min Rain = 0
KMD1 181021Z 24003KT 10/07 A3001 RMK A01 T00950067  RH  083%=      5-min Rain = 0
KMD1 181022Z 24004KT 09/07 A3001 RMK A01 T00940067  RH  083%=      5-min Rain = 0
KMD1 181023Z 24003KT 09/07 A3001 RMK A01 T00920065  RH  083%=      5-min Rain = 0
KMD1 181024Z 25003KT 09/06 A3001 RMK A01 T00910064  RH  083%=      5-min Rain = 0
KMD1 181025Z 25004KT 09/06 A3001 RMK A01 T00900064  RH  084%=      5-min Rain = 0
KMD1 181026Z 25003KT 09/07 A3001 RMK A01 T00900065  RH  084%=      5-min Rain = 0
KMD1 181027Z 24003KT 09/07 A3001 RMK A01 T00900066  RH  085%=      5-min Rain = 0
KMD1 181028Z 25003KT 09/07 A30 RMK A01 T00900066  RH  085%=      5-min Rain = 0
KMD1 181029Z 25003KT 09/07 A30 RMK A01 T00910066  RH  085%=      5-min Rain = 0
KMD1 181030Z 24002KT 09/07 A30 RMK A01 T00910066  RH  084%=      5-min Rain = 0
KMD1 181031Z 25002KT 09/07 A30 RMK A01 T00900065  RH  084%=      5-min Rain = 0
KMD1 181032Z 24001KT 09/06 A30 RMK A01 T00900064  RH  084%=      5-min Rain = 0
KMD1 181033Z 24001KT 09/06 A30 RMK A01 T00890063  RH  084%=      5-min Rain = 0
KMD1 181034Z 23001KT 09/06 A30 RMK A01 T00880062  RH  084%=      5-min Rain = 0
KMD1 181035Z 22001KT 09/06 A30 RMK A01 T00860061  RH  084%=      5-min Rain = 0
KMD1 181036Z 21001KT 09/06 A30 RMK A01 T00850061  RH  085%=      5-min Rain = 0
KMD1 181037Z 22001KT 08/06 A30 RMK A01 T00840062  RH  086%=      5-min Rain = 0
KMD1 181038Z 21001KT 08/06 A30 RMK A01 T00840063  RH  087%=      5-min Rain = 0
KMD1 181039Z 19001KT 09/07 A30 RMK A01 T00850065  RH  087%=      5-min Rain = 0
KMD1 181040Z 19000KT 09/07 A30 RMK A01 T00860066  RH  087%=      5-min Rain = 0
KMD1 181041Z 00000KT 09/06 A30 RMK A01 T00860064  RH  086%=      5-min Rain = 0
KMD1 181042Z 00000KT 09/06 A30 RMK A01 T00850063  RH  086%=      5-min Rain = 0
KMD1 181043Z 16000KT 09/07 A30 RMK A01 T00850065  RH  087%=      5-min Rain = 0
KMD1 181044Z 16001KT 09/07 A30 RMK A01 T00860066  RH  087%=      5-min Rain = 0
KMD1 181045Z 17000KT 09/07 A30 RMK A01 T00870066  RH  087%=      5-min Rain = 0
KMD1 181046Z 17000KT 09/07 A30 RMK A01 T00870067  RH  087%=      5-min Rain = 0
KMD1 181047Z 16000KT 09/07 A30 RMK A01 T00880068  RH  087%=      5-min Rain = 0
KMD1 181048Z 16000KT 09/07 A30 RMK A01 T00880067  RH  087%=      5-min Rain = 0
KMD1 181049Z 00000KT 09/07 A2999 RMK A01 T00880066  RH  086%=      5-min Rain = 0
KMD1 181050Z 00000KT 09/07 A2999 RMK A01 T00880067  RH  087%=      5-min Rain = 0
KMD1 181051Z 00000KT 09/07 A2999 RMK A01 T00890068  RH  087%=      5-min Rain = 0
KMD1 181052Z 00000KT 09/07 A2999 RMK A01 T00890067  RH  086%=      5-min Rain = 0
KMD1 181053Z 00000KT 09/07 A2999 RMK A01 T00880068  RH  087%=      5-min Rain = 0
KMD1 181054Z 00000KT 09/07 A2999 RMK A01 T00890069  RH  087%=      5-min Rain = 0
KMD1 181055Z 00000KT 09/07 A2999 RMK A01 T00890069  RH  087%=      5-min Rain = 0
KMD1 181056Z 00000KT 09/07 A2999 RMK A01 T00900070  RH  087%=      5-min Rain = 0
KMD1 181057Z 00000KT 09/07 A2999 RMK A01 T00910071  RH  087%=      5-min Rain = 0
KMD1 181058Z 00000KT 09/07 A2999 RMK A01 T00920071  RH  087%=      5-min Rain = 0
KMD1 181059Z 00000KT 09/07 A2999 RMK A01 T00920070  RH  086%=      5-min Rain = 0
KMD1 181100Z 00000KT 09/07 A2999 RMK A01 T00920070  RH  086%=      5-min Rain = 0
KMD1 181101Z 00000KT 09/07 A2999 RMK A01 T00920070  RH  086%=      5-min Rain = 0
KMD1 181102Z 00000KT 09/07 A2999 RMK A01 T00920070  RH  086%=      5-min Rain = 0
KMD1 181103Z 00000KT 09/07 A2999 RMK A01 T00920070  RH  086%=      5-min Rain = 0
KMD1 181104Z 00000KT 09/07 A2999 RMK A01 T00930071  RH  086%=      5-min Rain = 0
KMD1 181105Z 00000KT 09/07 A2999 RMK A01 T00920070  RH  086%=      5-min Rain = 0
KMD1 181106Z 00000KT 09/07 A2999 RMK A01 T00920071  RH  086%=      5-min Rain = 0
KMD1 181107Z 00000KT 09/07 A2999 RMK A01 T00920071  RH  086%=      5-min Rain = 0
KMD1 181108Z 00000KT 09/07 A2999 RMK A01 T00920071  RH  087%=      5-min Rain = 0
KMD1 181109Z 00000KT 09/07 A2999 RMK A01 T00920071  RH  087%=      5-min Rain = 0
KMD1 181110Z 00000KT 09/07 A2998 RMK A01 T00930071  RH  086%=      5-min Rain = 0
KMD1 181111Z 00000KT 09/07 A2998 RMK A01 T00930071  RH  086%=      5-min Rain = 0
KMD1 181112Z 00000KT 09/07 A2998 RMK A01 T00920070  RH  086%=      5-min Rain = 0
KMD1 181113Z 00000KT 09/07 A2998 RMK A01 T00920070  RH  086%=      5-min Rain = 0
KMD1 181114Z 00000KT 09/07 A2998 RMK A01 T00920070  RH  086%=      5-min Rain = 0
KMD1 181115Z 00000KT 09/07 A2998 RMK A01 T00910069  RH  086%=      5-min Rain = 0
KMD1 181116Z 00000KT 09/07 A2998 RMK A01 T00910069  RH  086%=      5-min Rain = 0
KMD1 181117Z 00000KT 09/07 A2998 RMK A01 T00900069  RH  087%=      5-min Rain = 0
KMD1 181118Z 00000KT 09/07 A2998 RMK A01 T00900070  RH  087%=      5-min Rain = 0
KMD1 181119Z 00000KT 09/07 A2998 RMK A01 T00900070  RH  087%=      5-min Rain = 0
KMD1 181120Z 00000KT 09/07 A2998 RMK A01 T00900070  RH  088%=      5-min Rain = 0
KMD1 181121Z 00000KT 09/07 A2998 RMK A01 T00900071  RH  088%=      5-min Rain = 0
KMD1 181122Z 35000KT 09/07 A2998 RMK A01 T00900071  RH  088%=      5-min Rain = 0
KMD1 181123Z 35001KT 09/07 A2998 RMK A01 T00900072  RH  088%=      5-min Rain = 0
KMD1 181124Z 35000KT 09/07 A2998 RMK A01 T00910072  RH  088%=      5-min Rain = 0
KMD1 181125Z 00000KT 09/07 A2998 RMK A01 T00920073  RH  088%=      5-min Rain = 0
KMD1 181126Z 00000KT 09/07 A2998 RMK A01 T00920072  RH  087%=      5-min Rain = 0
KMD1 181127Z 00000KT 09/07 A2998 RMK A01 T00920072  RH  087%=      5-min Rain = 0
KMD1 181128Z 00000KT 09/07 A2998 RMK A01 T00920072  RH  087%=      5-min Rain = 0
KMD1 181129Z 00000KT 09/07 A2998 RMK A01 T00920072  RH  087%=      5-min Rain = 0
KMD1 181130Z 00000KT 09/07 A2998 RMK A01 T00930072  RH  087%=      5-min Rain = 0
KMD1 181131Z 00000KT 09/07 A2998 RMK A01 T00930072  RH  087%=      5-min Rain = 0
KMD1 181132Z 00000KT 09/07 A2998 RMK A01 T00930072  RH  086%=      5-min Rain = 0
KMD1 181133Z 00000KT 09/07 A2998 RMK A01 T00940072  RH  086%=      5-min Rain = 0
KMD1 181134Z 35001KT 09/07 A2998 RMK A01 T00930071  RH  086%=      5-min Rain = 0
KMD1 181135Z 35001KT 09/07 A2998 RMK A01 T00920070  RH  086%=      5-min Rain = 0
KMD1 181136Z 34002KT 09/07 A2998 RMK A01 T00910071  RH  087%=      5-min Rain = 0
KMD1 181137Z 32002KT 09/07 A2998 RMK A01 T00900072  RH  088%=      5-min Rain = 0
KMD1 181138Z 33002KT 09/07 A2998 RMK A01 T00910072  RH  088%=      5-min Rain = 0
KMD1 181139Z 33002KT 09/07 A2998 RMK A01 T00920073  RH  088%=      5-min Rain = 0
KMD1 181140Z 32002KT 09/07 A2998 RMK A01 T00920073  RH  088%=      5-min Rain = 0
KMD1 181141Z 32002KT 09/07 A2998 RMK A01 T00930073  RH  087%=      5-min Rain = 0
KMD1 181142Z 32002KT 09/07 A2998 RMK A01 T00940074  RH  087%=      5-min Rain = 0
KMD1 181143Z 30002KT 09/07 A2998 RMK A01 T00940074  RH  087%=      5-min Rain = 0
KMD1 181144Z 30002KT 10/07 A2998 RMK A01 T00950074  RH  087%=      5-min Rain = 0
KMD1 181145Z 29002KT 10/08 A2998 RMK A01 T00970075  RH  086%=      5-min Rain = 0
KMD1 181146Z 29002KT 10/08 A2998 RMK A01 T00990076  RH  086%=      5-min Rain = 0
KMD1 181147Z 29002KT 10/08 A2998 RMK A01 T01000076  RH  085%=      5-min Rain = 0
KMD1 181148Z 28001KT 10/08 A2998 RMK A01 T01020076  RH  084%=      5-min Rain = 0
KMD1 181149Z 28001KT 10/08 A2998 RMK A01 T01030076  RH  083%=      5-min Rain = 0
KMD1 181150Z 28001KT 11/08 A2998 RMK A01 T01050076  RH  083%=      5-min Rain = 0
KMD1 181151Z 27002KT 11/08 A2998 RMK A01 T01060076  RH  082%=      5-min Rain = 0
KMD1 181152Z 26002KT 11/08 A2998 RMK A01 T01070076  RH  081%=      5-min Rain = 0
KMD1 181153Z 26002KT 11/08 A2998 RMK A01 T01070076  RH  081%=      5-min Rain = 0
KMD1 181154Z 25002KT 11/08 A2998 RMK A01 T01070075  RH  081%=      5-min Rain = 0
KMD1 181155Z 26002KT 11/08 A2998 RMK A01 T01080076  RH  080%=      5-min Rain = 0
KMD1 181156Z 26002KT 11/08 A2998 RMK A01 T01080075  RH  080%=      5-min Rain = 0
KMD1 181157Z 26002KT 11/08 A2998 RMK A01 T01080075  RH  080%=      5-min Rain = 0
KMD1 181158Z 27002KT 11/08 A2998 RMK A01 T01080075  RH  080%=      5-min Rain = 0
KMD1 181159Z 28002KT 11/08 A2998 RMK A01 T01080075  RH  080%=      5-min Rain = 0
KMD1 181200Z 28002KT 11/08 A2998 RMK A01 T01080075  RH  080%=      5-min Rain = 0
KMD1 181201Z 28002KT 11/08 A2998 RMK A01 T01080075  RH  080%=      5-min Rain = 0
KMD1 181202Z 28002KT 11/08 A2998 RMK A01 T01080075  RH  080%=      5-min Rain = 0
KMD1 181203Z 27002KT 11/08 A2998 RMK A01 T01080075  RH  080%=      5-min Rain = 0
KMD1 181204Z 28002KT 11/08 A2998 RMK A01 T01090075  RH  080%=      5-min Rain = 0
KMD1 181205Z 27003KT 11/08 A2998 RMK A01 T01080075  RH  080%=      5-min Rain = 0
KMD1 181206Z 27002KT 11/08 A2998 RMK A01 T01090075  RH  080%=      5-min Rain = 0
KMD1 181207Z 26002KT 11/08 A2997 RMK A01 T01090075  RH  080%=      5-min Rain = 0
KMD1 181208Z 26002KT 11/08 A2997 RMK A01 T01080075  RH  080%=      5-min Rain = 0
KMD1 181209Z 26002KT 11/08 A2997 RMK A01 T01080075  RH  080%=      5-min Rain = 0
KMD1 181210Z 25003KT 11/08 A2997 RMK A01 T01070075  RH  080%=      5-min Rain = 0
KMD1 181211Z 26003KT 11/08 A2998 RMK A01 T01070075  RH  080%=      5-min Rain = 0
KMD1 181212Z 26003KT 11/08 A2998 RMK A01 T01070075  RH  080%=      5-min Rain = 0
KMD1 181213Z 27003KT 11/07 A2998 RMK A01 T01070074  RH  080%=      5-min Rain = 0
KMD1 181214Z 27003KT 11/07 A2998 RMK A01 T01070074  RH  080%=      5-min Rain = 0
KMD1 181215Z 27003KT 11/07 A2998 RMK A01 T01070074  RH  080%=      5-min Rain = 0
KMD1 181216Z 28003KT 11/07 A2998 RMK A01 T01060074  RH  080%=      5-min Rain = 0
KMD1 181217Z 28003KT 11/07 A2998 RMK A01 T01060073  RH  081%=      5-min Rain = 0
KMD1 181218Z 28004KT 11/07 A2998 RMK A01 T01050073  RH  081%=      5-min Rain = 0
KMD1 181219Z 26005KT 10/07 A2998 RMK A01 T01040073  RH  081%=      5-min Rain = 0
KMD1 181220Z 26005KT 10/07 A2998 RMK A01 T01040074  RH  081%=      5-min Rain = 0
KMD1 181221Z 25005KT 10/07 A2998 RMK A01 T01040073  RH  081%=      5-min Rain = 0
KMD1 181222Z 24005KT 11/07 A2998 RMK A01 T01060074  RH  081%=      5-min Rain = 0
KMD1 181223Z 23005KT 11/07 A2997 RMK A01 T01070074  RH  080%=      5-min Rain = 0
KMD1 181224Z 23005KT 11/07 A2997 RMK A01 T01080073  RH  079%=      5-min Rain = 0
KMD1 181225Z 22005KT 11/07 A2997 RMK A01 T01080073  RH  079%=      5-min Rain = 0
KMD1 181226Z 22005KT 11/07 A2997 RMK A01 T01080073  RH  079%=      5-min Rain = 0
KMD1 181227Z 21006KT 11/07 A2997 RMK A01 T01070073  RH  080%=      5-min Rain = 0
KMD1 181228Z 21006KT 11/07 A2997 RMK A01 T01050073  RH  080%=      5-min Rain = 0
KMD1 181229Z 21006KT 10/07 A2997 RMK A01 T01030072  RH  081%=      5-min Rain = 0
KMD1 181230Z 21006KT 10/07 A2997 RMK A01 T01000071  RH  082%=      5-min Rain = 0
KMD1 181231Z 20006KT 10/07 A2997 RMK A01 T00990072  RH  083%=      5-min Rain = 0
KMD1 181232Z 19006KT 10/07 A2997 RMK A01 T00970071  RH  084%=      5-min Rain = 0
KMD1 181233Z 19005KT 09/07 A2997 RMK A01 T00940070  RH  085%=      5-min Rain = 0
KMD1 181234Z 19005KT 09/07 A2997 RMK A01 T00930070  RH  085%=      5-min Rain = 0
KMD1 181235Z 19005KT 09/07 A2997 RMK A01 T00920070  RH  086%=      5-min Rain = 0
KMD1 181236Z 19005KT 09/07 A2997 RMK A01 T00910069  RH  087%=      5-min Rain = 0
KMD1 181237Z 21006KT 09/07 A2997 RMK A01 T00900070  RH  087%=      5-min Rain = 0
KMD1 181238Z 21005KT 09/07 A2997 RMK A01 T00910072  RH  088%=      5-min Rain = 0
KMD1 181239Z 20004KT 09/07 A2997 RMK A01 T00930073  RH  087%=      5-min Rain = 0
KMD1 181240Z 21004KT 09/07 A2997 RMK A01 T00940072  RH  086%=      5-min Rain = 0
KMD1 181241Z 21004KT 09/07 A2997 RMK A01 T00940072  RH  086%=      5-min Rain = 0
KMD1 181242Z 22004KT 10/07 A2997 RMK A01 T00950072  RH  086%=      5-min Rain = 0
KMD1 181243Z 22004KT 10/07 A2997 RMK A01 T00960072  RH  085%=      5-min Rain = 0
KMD1 181244Z 22004KT 10/07 A2997 RMK A01 T00960072  RH  085%=      5-min Rain = 0
KMD1 181245Z 21004KT 10/07 A2997 RMK A01 T00970073  RH  085%=      5-min Rain = 0
KMD1 181246Z 22003KT 10/07 A2997 RMK A01 T00970072  RH  084%=      5-min Rain = 0
KMD1 181247Z 22003KT 10/07 A2996 RMK A01 T00980072  RH  084%=      5-min Rain = 0
KMD1 181248Z 22002KT 10/07 A2996 RMK A01 T00970072  RH  084%=      5-min Rain = 0
KMD1 181249Z 23002KT 10/07 A2996 RMK A01 T00960071  RH  085%=      5-min Rain = 0
KMD1 181250Z 24003KT 10/07 A2996 RMK A01 T00950071  RH  085%=      5-min Rain = 0
KMD1 181251Z 25002KT 10/07 A2996 RMK A01 T00950071  RH  085%=      5-min Rain = 0
KMD1 181252Z 25003KT 10/07 A2996 RMK A01 T00950071  RH  085%=      5-min Rain = 0
KMD1 181253Z 25003KT 10/07 A2996 RMK A01 T00950072  RH  085%=      5-min Rain = 0
KMD1 181254Z 25003KT 10/07 A2996 RMK A01 T00950072  RH  086%=      5-min Rain = 0
KMD1 181255Z 25003KT 10/07 A2996 RMK A01 T00950072  RH  085%=      5-min Rain = 0
KMD1 181256Z 24004KT 10/07 A2996 RMK A01 T00950071  RH  085%=      5-min Rain = 0
KMD1 181257Z 23004KT 10/07 A2996 RMK A01 T00960071  RH  085%=      5-min Rain = 0
KMD1 181258Z 23004KT 10/07 A2996 RMK A01 T00970072  RH  085%=      5-min Rain = 0
KMD1 181259Z 23005KT 10/07 A2996 RMK A01 T00970072  RH  085%=      5-min Rain = 0
KMD1 181300Z 22005KT 10/07 A2996 RMK A01 T00980074  RH  085%=      5-min Rain = 0
KMD1 181301Z 22004KT 10/07 A2996 RMK A01 T01000074  RH  084%=      5-min Rain = 0
KMD1 181302Z 22004KT 10/07 A2996 RMK A01 T01000074  RH  084%=      5-min Rain = 0
KMD1 181303Z 21003KT 10/07 A2996 RMK A01 T01000073  RH  083%=      5-min Rain = 0
KMD1 181304Z 22004KT 10/07 A2996 RMK A01 T01000072  RH  083%=      5-min Rain = 0
KMD1 181305Z 22004KT 10/07 A2996 RMK A01 T01000073  RH  083%=      5-min Rain = 0
KMD1 181306Z 22004KT 10/07 A2996 RMK A01 T01000073  RH  083%=      5-min Rain = 0
KMD1 181307Z 23004KT 10/07 A2996 RMK A01 T00990072  RH  083%=      5-min Rain = 0
KMD1 181308Z 24004KT 10/07 A2996 RMK A01 T01000073  RH  084%=      5-min Rain = 0
KMD1 181309Z 23004KT 10/07 A2997 RMK A01 T01000073  RH  084%=      5-min Rain = 0
KMD1 181310Z 23005KT 10/07 A2997 RMK A01 T01000073  RH  084%=      5-min Rain = 0
KMD1 181311Z 24004KT 10/07 A2997 RMK A01 T01000073  RH  084%=      5-min Rain = 0
KMD1 181312Z 24004KT 10/07 A2997 RMK A01 T01010074  RH  083%=      5-min Rain = 0
KMD1 181313Z 24004KT 10/07 A2997 RMK A01 T01010073  RH  083%=      5-min Rain = 0
KMD1 181314Z 23004KT 10/07 A2997 RMK A01 T01010073  RH  083%=      5-min Rain = 0
KMD1 181315Z 23004KT 10/07 A2997 RMK A01 T01000072  RH  083%=      5-min Rain = 0
KMD1 181316Z 23004KT 10/07 A2997 RMK A01 T00990072  RH  083%=      5-min Rain = 0
KMD1 181317Z 23004KT 10/07 A2997 RMK A01 T00990073  RH  084%=      5-min Rain = 0
KMD1 181318Z 23004KT 10/07 A2997 RMK A01 T00990073  RH  084%=      5-min Rain = 0
KMD1 181319Z 23004KT 10/07 A2997 RMK A01 T00990073  RH  084%=      5-min Rain = 0
KMD1 181320Z 23004KT 10/07 A2997 RMK A01 T01000073  RH  084%=      5-min Rain = 0
KMD1 181321Z 23005KT 10/07 A2997 RMK A01 T01000074  RH  084%=      5-min Rain = 0
KMD1 181322Z 23005KT 10/07 A2997 RMK A01 T01000074  RH  084%=      5-min Rain = 0
KMD1 181323Z 23005KT 10/08 A2997 RMK A01 T01020075  RH  083%=      5-min Rain = 0
KMD1 181324Z 23005KT 10/08 A2997 RMK A01 T01020075  RH  083%=      5-min Rain = 0
KMD1 181325Z 23005KT 10/08 A2997 RMK A01 T01040076  RH  083%=      5-min Rain = 0
KMD1 181326Z 24005KT 11/08 A2997 RMK A01 T01050076  RH  082%=      5-min Rain = 0
KMD1 181327Z 24005KT 11/08 A2997 RMK A01 T01060076  RH  082%=      5-min Rain = 0
KMD1 181328Z 24004KT 11/08 A2997 RMK A01 T01060075  RH  081%=      5-min Rain = 0
KMD1 181329Z 24004KT 10/07 A2997 RMK A01 T01040072  RH  081%=      5-min Rain = 0
KMD1 181330Z 24004KT 10/07 A2997 RMK A01 T01010070  RH  081%=      5-min Rain = 0
KMD1 181331Z 24004KT 10/07 A2997 RMK A01 T00990071  RH  082%=      5-min Rain = 0
KMD1 181332Z 24004KT 10/07 A2997 RMK A01 T00990072  RH  083%=      5-min Rain = 0
KMD1 181333Z 24003KT 10/07 A2997 RMK A01 T00990073  RH  084%=      5-min Rain = 0
KMD1 181334Z 25003KT 10/07 A2997 RMK A01 T00990072  RH  083%=      5-min Rain = 0
KMD1 181335Z 25003KT 10/07 A2997 RMK A01 T00990072  RH  083%=      5-min Rain = 0
KMD1 181336Z 25003KT 10/07 A2997 RMK A01 T00990072  RH  083%=      5-min Rain = 0
KMD1 181337Z 25003KT 10/07 A2997 RMK A01 T00990072  RH  083%=      5-min Rain = 0
KMD1 181338Z 26003KT 10/07 A2996 RMK A01 T00990072  RH  083%=      5-min Rain = 0
KMD1 181339Z 25002KT 10/07 A2996 RMK A01 T00990072  RH  083%=      5-min Rain = 0
KMD1 181340Z 25002KT 10/07 A2996 RMK A01 T00990072  RH  083%=      5-min Rain = 0
KMD1 181341Z 24002KT 10/07 A2996 RMK A01 T00990072  RH  083%=      5-min Rain = 0
KMD1 181342Z 23001KT 10/07 A2996 RMK A01 T00990072  RH  083%=      5-min Rain = 0
KMD1 181343Z 23001KT 10/07 A2996 RMK A01 T01000073  RH  083%=      5-min Rain = 0
KMD1 181344Z 24001KT 10/07 A2996 RMK A01 T01000072  RH  083%=      5-min Rain = 0
KMD1 181345Z 25002KT 10/07 A2996 RMK A01 T01000072  RH  083%=      5-min Rain = 0
KMD1 181346Z 26001KT 10/07 A2996 RMK A01 T00990071  RH  083%=      5-min Rain = 0
KMD1 181347Z 27002KT 10/07 A2996 RMK A01 T00980071  RH  083%=      5-min Rain = 0
KMD1 181348Z 27002KT 10/07 A2996 RMK A01 T00980071  RH  083%=      5-min Rain = 0
KMD1 181349Z 28002KT 10/07 A2996 RMK A01 T00970071  RH  084%=      5-min Rain = 0
KMD1 181350Z 28002KT 10/07 A2996 RMK A01 T00970072  RH  084%=      5-min Rain = 0
KMD1 181351Z 28002KT 10/07 A2996 RMK A01 T00970072  RH  085%=      5-min Rain = 0
KMD1 181352Z 28002KT 10/07 A2996 RMK A01 T00970072  RH  085%=      5-min Rain = 0
KMD1 181353Z 28002KT 10/07 A2996 RMK A01 T00970073  RH  085%=      5-min Rain = 0
KMD1 181354Z 27002KT 10/07 A2996 RMK A01 T00980073  RH  084%=      5-min Rain = 0
KMD1 181355Z 27002KT 10/07 A2996 RMK A01 T00990073  RH  084%=      5-min Rain = 0
KMD1 181356Z 27002KT 10/07 A2996 RMK A01 T00990073  RH  084%=      5-min Rain = 0
KMD1 181357Z 26002KT 10/07 A2996 RMK A01 T00990073  RH  084%=      5-min Rain = 0
KMD1 181358Z 26002KT 10/07 A2996 RMK A01 T00990073  RH  083%=      5-min Rain = 0
KMD1 181359Z 26002KT 10/07 A2996 RMK A01 T00990072  RH  083%=      5-min Rain = 0
KMD1 181400Z 26002KT 10/07 A2997 RMK A01 T00990072  RH  083%=      5-min Rain = 0
KMD1 181401Z 27002KT 10/07 A2996 RMK A01 T00980072  RH  084%=      5-min Rain = 0
KMD1 181402Z 27002KT 10/07 A2996 RMK A01 T00970072  RH  084%=      5-min Rain = 0
KMD1 181403Z 27002KT 10/07 A2996 RMK A01 T00960071  RH  084%=      5-min Rain = 0
KMD1 181404Z 26002KT 10/07 A2997 RMK A01 T00960071  RH  084%=      5-min Rain = 0
KMD1 181405Z 26001KT 10/07 A2997 RMK A01 T00950071  RH  085%=      5-min Rain = 0
KMD1 181406Z 25001KT 10/07 A2997 RMK A01 T00950071  RH  085%=      5-min Rain = 0
KMD1 181407Z 25001KT 10/07 A2997 RMK A01 T00950071  RH  085%=      5-min Rain = 0
KMD1 181408Z 25001KT 10/07 A2997 RMK A01 T00950070  RH  085%=      5-min Rain = 0
KMD1 181409Z 25001KT 09/07 A2996 RMK A01 T00940070  RH  085%=      5-min Rain = 0
KMD1 181410Z 26001KT 09/07 A2996 RMK A01 T00940070  RH  085%=      5-min Rain = 0
KMD1 181411Z 26001KT 09/07 A2996 RMK A01 T00930069  RH  085%=      5-min Rain = 0
KMD1 181412Z 27001KT 09/07 A2996 RMK A01 T00920069  RH  085%=      5-min Rain = 0
KMD1 181413Z 27001KT 09/07 A2996 RMK A01 T00920069  RH  086%=      5-min Rain = 0
KMD1 181414Z 28001KT 09/07 A2996 RMK A01 T00920069  RH  086%=      5-min Rain = 0
KMD1 181415Z 29001KT 09/07 A2996 RMK A01 T00920069  RH  086%=      5-min Rain = 0
KMD1 181416Z 30001KT 09/07 A2996 RMK A01 T00920070  RH  086%=      5-min Rain = 0
KMD1 181417Z 30001KT 09/07 A2996 RMK A01 T00920070  RH  086%=      5-min Rain = 0
KMD1 181418Z 29001KT 09/07 A2996 RMK A01 T00920070  RH  086%=      5-min Rain = 0
KMD1 181419Z 27001KT 09/07 A2996 RMK A01 T00910070  RH  087%=      5-min Rain = 0
KMD1 181420Z 25001KT 09/07 A2996 RMK A01 T00920070  RH  086%=      5-min Rain = 0
KMD1 181421Z 24001KT 09/07 A2997 RMK A01 T00910070  RH  086%=      5-min Rain = 0
KMD1 181422Z 23002KT 09/07 A2997 RMK A01 T00910070  RH  086%=      5-min Rain = 0
KMD1 181423Z 23002KT 09/07 A2997 RMK A01 T00910070  RH  087%=      5-min Rain = 0
KMD1 181424Z 22002KT 09/07 A2997 RMK A01 T00910069  RH  086%=      5-min Rain = 0
KMD1 181425Z 22002KT 09/07 A2997 RMK A01 T00910069  RH  086%=      5-min Rain = 0
KMD1 181426Z 22003KT 09/07 A2997 RMK A01 T00920069  RH  086%=      5-min Rain = 0
KMD1 181427Z 22002KT 09/07 A2997 RMK A01 T00920069  RH  086%=      5-min Rain = 0
KMD1 181428Z 22002KT 09/07 A2996 RMK A01 T00930069  RH  085%=      5-min Rain = 0
KMD1 181429Z 22002KT 09/07 A2996 RMK A01 T00920069  RH  086%=      5-min Rain = 0
KMD1 181430Z 22002KT 09/07 A2996 RMK A01 T00920070  RH  086%=      5-min Rain = 0
KMD1 181431Z 21002KT 09/07 A2996 RMK A01 T00920070  RH  086%=      5-min Rain = 0
KMD1 181432Z 21002KT 09/07 A2996 RMK A01 T00920069  RH  086%=      5-min Rain = 0
KMD1 181433Z 22002KT 09/07 A2996 RMK A01 T00920069  RH  086%=      5-min Rain = 0
KMD1 181434Z 22002KT 09/07 A2996 RMK A01 T00910069  RH  086%=      5-min Rain = 0
KMD1 181435Z 22002KT 09/07 A2996 RMK A01 T00900068  RH  086%=      5-min Rain = 0
KMD1 181436Z 23002KT 09/07 A2996 RMK A01 T00890067  RH  086%=      5-min Rain = 0
KMD1 181437Z 23002KT 09/07 A2996 RMK A01 T00870067  RH  087%=      5-min Rain = 0
KMD1 181438Z 23003KT 09/07 A2996 RMK A01 T00870068  RH  088%=      5-min Rain = 0
KMD1 181439Z 23003KT 09/07 A2996 RMK A01 T00860068  RH  089%=      5-min Rain = 0
KMD1 181440Z 23003KT 09/07 A2996 RMK A01 T00860068  RH  089%=      5-min Rain = 0
KMD1 181441Z 23003KT 09/07 A2996 RMK A01 T00860068  RH  088%=      5-min Rain = 0
KMD1 181442Z 23003KT 09/07 A2996 RMK A01 T00860068  RH  089%=      5-min Rain = 0
KMD1 181443Z 24003KT 09/07 A2996 RMK A01 T00870069  RH  089%=      5-min Rain = 0
KMD1 181444Z 23003KT 09/07 A2996 RMK A01 T00870069  RH  089%=      5-min Rain = 0
KMD1 181445Z 23003KT 09/07 A2996 RMK A01 T00870070  RH  089%=      5-min Rain = 0
KMD1 181446Z 24003KT 09/07 A2996 RMK A01 T00870070  RH  089%=      5-min Rain = 0
KMD1 181447Z 23003KT 09/07 A2996 RMK A01 T00870070  RH  089%=      5-min Rain = 0
KMD1 181448Z 24003KT 09/07 A2996 RMK A01 T00870070  RH  089%=      5-min Rain = 0
KMD1 181449Z 25003KT 09/07 A2996 RMK A01 T00880071  RH  089%=      5-min Rain = 0
KMD1 181450Z 25003KT 09/07 A2996 RMK A01 T00890073  RH  090%=      5-min Rain = 0
KMD1 181451Z 27003KT 09/07 A2996 RMK A01 T00890074  RH  090%=      5-min Rain = 0
KMD1 181452Z 27003KT 09/08 A2996 RMK A01 T00900076  RH  091%=      5-min Rain = 0
KMD1 181453Z 28003KT 09/08 A2996 RMK A01 T00910077  RH  091%=      5-min Rain = 0
KMD1 181454Z 27003KT 09/08 A2996 RMK A01 T00930079  RH  091%=      5-min Rain = 0
KMD1 181455Z 27004KT 09/08 A2996 RMK A01 T00940080  RH  091%=      5-min Rain = 0
KMD1 181456Z 26004KT 10/08 A2996 RMK A01 T00950080  RH  090%=      5-min Rain = 0
KMD1 181457Z 26005KT 10/08 A2996 RMK A01 T00970080  RH  089%=      5-min Rain = 0
KMD1 181458Z 26004KT 10/08 A2996 RMK A01 T00980080  RH  088%=      5-min Rain = 0
KMD1 181459Z 26005KT 10/08 A2996 RMK A01 T00990080  RH  088%=      5-min Rain = 0
KMD1 181500Z 25005KT 10/08 A2996 RMK A01 T01000079  RH  087%=      5-min Rain = 0
KMD1 181501Z 25004KT 10/08 A2996 RMK A01 T01020080  RH  086%=      5-min Rain = 0
KMD1 181502Z 24004KT 10/08 A2996 RMK A01 T01030079  RH  085%=      5-min Rain = 0
KMD1 181503Z 24004KT 11/08 A2996 RMK A01 T01050078  RH  084%=      5-min Rain = 0
KMD1 181504Z 24004KT 11/08 A2996 RMK A01 T01070079  RH  083%=      5-min Rain = 0
KMD1 181505Z 24004KT 11/08 A2996 RMK A01 T01090079  RH  082%=      5-min Rain = 0
KMD1 181506Z 24004KT 11/08 A2996 RMK A01 T01100079  RH  082%=      5-min Rain = 0
KMD1 181507Z 24004KT 11/08 A2996 RMK A01 T01100079  RH  081%=      5-min Rain = 0
KMD1 181508Z 24004KT 11/08 A2996 RMK A01 T01110078  RH  080%=      5-min Rain = 0
KMD1 181509Z 25004KT 11/08 A2996 RMK A01 T01110078  RH  080%=      5-min Rain = 0
KMD1 181510Z 26003KT 11/08 A2996 RMK A01 T01120078  RH  080%=      5-min Rain = 0
KMD1 181511Z 27003KT 11/08 A2996 RMK A01 T01120079  RH  080%=      5-min Rain = 0
KMD1 181512Z 28003KT 11/08 A2996 RMK A01 T01120079  RH  080%=      5-min Rain = 0
KMD1 181513Z 28003KT 11/08 A2996 RMK A01 T01110081  RH  082%=      5-min Rain = 0
KMD1 181514Z 28003KT 11/08 A2996 RMK A01 T01110083  RH  083%=      5-min Rain = 0
KMD1 181515Z 28002KT 11/08 A2996 RMK A01 T01110083  RH  083%=      5-min Rain = 0
KMD1 181516Z 28002KT 11/08 A2996 RMK A01 T01100084  RH  084%=      5-min Rain = 0
KMD1 181517Z 28002KT 11/08 A2996 RMK A01 T01100084  RH  084%=      5-min Rain = 0
KMD1 181518Z 28002KT 11/09 A2996 RMK A01 T01100085  RH  084%=      5-min Rain = 0
KMD1 181519Z 29002KT 11/09 A2996 RMK A01 T01100086  RH  085%=      5-min Rain = 0
KMD1 181520Z 28002KT 11/09 A2996 RMK A01 T01100086  RH  085%=      5-min Rain = 0
KMD1 181521Z 27002KT 11/09 A2996 RMK A01 T01110085  RH  084%=      5-min Rain = 0
KMD1 181522Z 27002KT 11/08 A2996 RMK A01 T01110084  RH  083%=      5-min Rain = 0
KMD1 181523Z 27002KT 11/08 A2996 RMK A01 T01120084  RH  083%=      5-min Rain = 0
KMD1 181524Z 26002KT 11/09 A2996 RMK A01 T01120085  RH  083%=      5-min Rain = 0
KMD1 181525Z 25001KT 11/09 A2996 RMK A01 T01130085  RH  083%=      5-min Rain = 0
KMD1 181526Z 24001KT 11/09 A2995 RMK A01 T01140085  RH  083%=      5-min Rain = 0
KMD1 181527Z 25002KT 11/08 A2995 RMK A01 T01140084  RH  082%=      5-min Rain = 0
KMD1 181528Z 23001KT 12/09 A2995 RMK A01 T01150085  RH  082%=      5-min Rain = 0
KMD1 181529Z 23002KT 12/08 A2995 RMK A01 T01160084  RH  081%=      5-min Rain = 0
KMD1 181530Z 24002KT 12/08 A2995 RMK A01 T01160084  RH  080%=      5-min Rain = 0
KMD1 181531Z 23002KT 12/08 A2995 RMK A01 T01170084  RH  080%=      5-min Rain = 0
KMD1 181532Z 23002KT 12/08 A2995 RMK A01 T01180084  RH  079%=      5-min Rain = 0
KMD1 181533Z 20002KT 12/08 A2995 RMK A01 T01180083  RH  079%=      5-min Rain = 0
KMD1 181534Z 20004KT 12/08 A2995 RMK A01 T01190084  RH  079%=      5-min Rain = 0
KMD1 181535Z 20003KT 12/08 A2995 RMK A01 T01190084  RH  079%=      5-min Rain = 0
KMD1 181536Z 20003KT 12/09 A2995 RMK A01 T01200085  RH  079%=      5-min Rain = 0
KMD1 181537Z 21004KT 12/09 A2995 RMK A01 T01210086  RH  079%=      5-min Rain = 0
KMD1 181538Z 21004KT 12/09 A2995 RMK A01 T01220085  RH  078%=      5-min Rain = 0
KMD1 181539Z 21005KT 12/09 A2995 RMK A01 T01230087  RH  079%=      5-min Rain = 0
KMD1 181540Z 21006KT 12/09 A2995 RMK A01 T01230086  RH  078%=      5-min Rain = 0
KMD1 181541Z 22005KT 13/09 A2995 RMK A01 T01250087  RH  078%=      5-min Rain = 0
KMD1 181542Z 20007KT 13/09 A2995 RMK A01 T01260087  RH  077%=      5-min Rain = 0
KMD1 181543Z 20010KT 13/09 A2994 RMK A01 T01280086  RH  076%=      5-min Rain = 0
KMD1 181544Z 20008KT 13/09 A2995 RMK A01 T01310086  RH  074%=      5-min Rain = 0
KMD1 181545Z 20007KT 13/09 A2995 RMK A01 T01330089  RH  074%=      5-min Rain = 0
KMD1 181546Z 21009KT 13/09 A2995 RMK A01 T01340088  RH  074%=      5-min Rain = 0
KMD1 181547Z 21007KT 14/09 A2995 RMK A01 T01350089  RH  073%=      5-min Rain = 0
KMD1 181548Z 21008KT 14/09 A2995 RMK A01 T01360087  RH  072%=      5-min Rain = 0
KMD1 181549Z 22009KT 14/09 A2995 RMK A01 T01370087  RH  072%=      5-min Rain = 0
KMD1 181550Z 22009KT 14/09 A2995 RMK A01 T01370085  RH  071%=      5-min Rain = 0
KMD1 181551Z 23008KT 14/09 A2995 RMK A01 T01380087  RH  071%=      5-min Rain = 0
KMD1 181552Z 22009KT 14/09 A2995 RMK A01 T01390086  RH  071%=      5-min Rain = 0
KMD1 181553Z 22009KT 14/09 A2995 RMK A01 T01400087  RH  071%=      5-min Rain = 0
KMD1 181554Z 21008G13KT 14/09 A2994 RMK A01 T01400087  RH  070%=      5-min Rain = 0
KMD1 181555Z 23009KT 14/09 A2995 RMK A01 T01410087  RH  070%=      5-min Rain = 0
KMD1 181556Z 21009KT 14/09 A2995 RMK A01 T01410088  RH  070%=      5-min Rain = 0
KMD1 181557Z 22010KT 14/09 A2995 RMK A01 T01420088  RH  070%=      5-min Rain = 0
KMD1 181558Z 23011KT 14/09 A2995 RMK A01 T01420086  RH  069%=      5-min Rain = 0
KMD1 181559Z 22009KT 14/09 A2995 RMK A01 T01430088  RH  070%=      5-min Rain = 0
KMD1 181600Z 22009KT 14/09 A2995 RMK A01 T01430088  RH  069%=      5-min Rain = 0
KMD1 181601Z 22009KT 14/09 A2995 RMK A01 T01440088  RH  069%=      5-min Rain = 0
KMD1 181602Z 21009KT 15/09 A2995 RMK A01 T01450088  RH  069%=      5-min Rain = 0
KMD1 181603Z 22008KT 15/09 A2995 RMK A01 T01450088  RH  069%=      5-min Rain = 0
KMD1 181604Z 22009KT 15/09 A2995 RMK A01 T01460090  RH  069%=      5-min Rain = 0
KMD1 181605Z 21009KT 15/09 A2995 RMK A01 T01470089  RH  068%=      5-min Rain = 0
KMD1 181606Z 23007G12KT 15/09 A2995 RMK A01 T01480090  RH  068%=      5-min Rain = 0
KMD1 181607Z 22010KT 15/09 A2995 RMK A01 T01480088  RH  067%=      5-min Rain = 0
KMD1 181608Z 21009KT 15/09 A2995 RMK A01 T01490090  RH  068%=      5-min Rain = 0
KMD1 181609Z 21008KT 15/09 A2995 RMK A01 T01490092  RH  068%=      5-min Rain = 0
KMD1 181610Z 21009KT 15/09 A2995 RMK A01 T01500090  RH  067%=      5-min Rain = 0
KMD1 181611Z 21008KT 15/09 A2995 RMK A01 T01510092  RH  068%=      5-min Rain = 0
KMD1 181612Z 22008KT 15/09 A2995 RMK A01 T01510090  RH  067%=      5-min Rain = 0
KMD1 181613Z 22009KT 15/09 A2995 RMK A01 T01510090  RH  067%=      5-min Rain = 0
KMD1 181614Z 22009KT 15/09 A2995 RMK A01 T01520088  RH  066%=      5-min Rain = 0
KMD1 181615Z 23009KT 15/09 A2995 RMK A01 T01520091  RH  067%=      5-min Rain = 0
KMD1 181616Z 22011KT 15/09 A2995 RMK A01 T01530089  RH  066%=      5-min Rain = 0
KMD1 181617Z 21011KT 15/09 A2995 RMK A01 T01540089  RH  065%=      5-min Rain = 0
KMD1 181618Z 22010KT 16/09 A2995 RMK A01 T01550091  RH  066%=      5-min Rain = 0
KMD1 181619Z 22008KT 16/09 A2995 RMK A01 T01550090  RH  065%=      5-min Rain = 0
KMD1 181620Z 22011KT 16/09 A2995 RMK A01 T01560091  RH  065%=      5-min Rain = 0
KMD1 181621Z 22010KT 16/09 A2995 RMK A01 T01560090  RH  065%=      5-min Rain = 0
KMD1 181622Z 21009KT 16/09 A2995 RMK A01 T01570094  RH  066%=      5-min Rain = 0
KMD1 181623Z 21010KT 16/09 A2995 RMK A01 T01580091  RH  064%=      5-min Rain = 0
KMD1 181624Z 21010KT 16/09 A2995 RMK A01 T01580091  RH  064%=      5-min Rain = 0
KMD1 181625Z 22010KT 16/09 A2995 RMK A01 T01590092  RH  064%=      5-min Rain = 0
KMD1 181626Z 21010KT 16/09 A2995 RMK A01 T01590091  RH  064%=      5-min Rain = 0
KMD1 181627Z 22011KT 16/09 A2995 RMK A01 T01600091  RH  064%=      5-min Rain = 0
KMD1 181628Z 21012KT 16/09 A2995 RMK A01 T01610091  RH  064%=      5-min Rain = 0
KMD1 181629Z 21010KT 16/09 A2995 RMK A01 T01610092  RH  063%=      5-min Rain = 0
KMD1 181630Z 21011KT 16/09 A2995 RMK A01 T01620093  RH  063%=      5-min Rain = 0
KMD1 181631Z 21009KT 16/09 A2995 RMK A01 T01620091  RH  063%=      5-min Rain = 0
KMD1 181632Z 21010KT 16/09 A2995 RMK A01 T01630093  RH  063%=      5-min Rain = 0
KMD1 181633Z 21008KT 16/09 A2995 RMK A01 T01640092  RH  063%=      5-min Rain = 0
KMD1 181634Z 21010KT 16/09 A2995 RMK A01 T01640094  RH  063%=      5-min Rain = 0
KMD1 181635Z 21010KT 17/09 A2995 RMK A01 T01650091  RH  061%=      5-min Rain = 0
KMD1 181636Z 21011KT 17/09 A2995 RMK A01 T01660090  RH  061%=      5-min Rain = 0
KMD1 181637Z 20010KT 17/09 A2995 RMK A01 T01660091  RH  061%=      5-min Rain = 0
KMD1 181638Z 20011KT 17/09 A2995 RMK A01 T01660091  RH  061%=      5-min Rain = 0
KMD1 181639Z 21010KT 17/09 A2995 RMK A01 T01660090  RH  061%=      5-min Rain = 0
KMD1 181640Z 21010KT 17/09 A2995 RMK A01 T01660089  RH  060%=      5-min Rain = 0
KMD1 181641Z 20012KT 17/09 A2995 RMK A01 T01670091  RH  061%=      5-min Rain = 0
KMD1 181642Z 21012KT 17/09 A2995 RMK A01 T01680090  RH  060%=      5-min Rain = 0
KMD1 181643Z 21010KT 17/09 A2995 RMK A01 T01680090  RH  060%=      5-min Rain = 0
KMD1 181644Z 20009KT 17/09 A2995 RMK A01 T01680090  RH  060%=      5-min Rain = 0
KMD1 181645Z 20010KT 17/09 A2995 RMK A01 T01690091  RH  060%=      5-min Rain = 0
KMD1 181646Z 21012KT 17/09 A2995 RMK A01 T01690090  RH  059%=      5-min Rain = 0
KMD1 181647Z 20012KT 17/09 A2995 RMK A01 T01700090  RH  059%=      5-min Rain = 0
KMD1 181648Z 21012KT 17/09 A2995 RMK A01 T01710092  RH  060%=      5-min Rain = 0
KMD1 181649Z 20011KT 17/09 A2995 RMK A01 T01720091  RH  059%=      5-min Rain = 0
KMD1 181650Z 19011KT 17/09 A2994 RMK A01 T01730093  RH  059%=      5-min Rain = 0
KMD1 181651Z 20010KT 17/09 A2994 RMK A01 T01730093  RH  059%=      5-min Rain = 0
KMD1 181652Z 20013KT 17/09 A2994 RMK A01 T01740091  RH  058%=      5-min Rain = 0
KMD1 181653Z 20013KT 17/09 A2994 RMK A01 T01740090  RH  058%=      5-min Rain = 0
KMD1 181654Z 21013KT 17/09 A2995 RMK A01 T01740092  RH  058%=      5-min Rain = 0
KMD1 181655Z 21013KT 17/09 A2995 RMK A01 T01740089  RH  057%=      5-min Rain = 0
KMD1 181656Z 21011KT 17/09 A2995 RMK A01 T01740089  RH  057%=      5-min Rain = 0
KMD1 181657Z 21010G15KT 17/09 A2995 RMK A01 T01740090  RH  058%=      5-min Rain = 0
KMD1 181658Z 20013KT 17/09 A2995 RMK A01 T01740090  RH  058%=      5-min Rain = 0
KMD1 181659Z 21012KT 17/09 A2995 RMK A01 T01740089  RH  057%=      5-min Rain = 0
KMD1 181700Z 21013G18KT 17/09 A2995 RMK A01 T01740090  RH  057%=      5-min Rain = 0
KMD1 181701Z 20013KT 17/09 A2995 RMK A01 T01740089  RH  057%=      5-min Rain = 0
KMD1 181702Z 21013KT 17/09 A2994 RMK A01 T01740088  RH  057%=      5-min Rain = 0
KMD1 181703Z 21012G17KT 17/09 A2994 RMK A01 T01740088  RH  057%=      5-min Rain = 0
KMD1 181704Z 21017KT 17/09 A2994 RMK A01 T01740088  RH  057%=      5-min Rain = 0
KMD1 181705Z 21012KT 17/09 A2994 RMK A01 T01740088  RH  057%=      5-min Rain = 0
KMD1 181706Z 21011KT 18/09 A2994 RMK A01 T01750090  RH  057%=      5-min Rain = 0
KMD1 181707Z 20012G17KT 18/09 A2994 RMK A01 T01750089  RH  057%=      5-min Rain = 0
KMD1 181708Z 21014KT 18/09 A2994 RMK A01 T01760090  RH  057%=      5-min Rain = 0
KMD1 181709Z 21013KT 18/09 A2994 RMK A01 T01760090  RH  057%=      5-min Rain = 0
KMD1 181710Z 20012KT 18/09 A2994 RMK A01 T01760091  RH  058%=      5-min Rain = 0
KMD1 181711Z 21015KT 18/09 A2993 RMK A01 T01760089  RH  057%=      5-min Rain = 0
KMD1 181712Z 21016KT 18/09 A2993 RMK A01 T01760089  RH  057%=      5-min Rain = 0
KMD1 181713Z 20011G16KT 18/09 A2993 RMK A01 T01750090  RH  057%=      5-min Rain = 0
KMD1 181714Z 21016KT 18/09 A2993 RMK A01 T01750089  RH  057%=      5-min Rain = 0
KMD1 181715Z 21012KT 18/09 A2993 RMK A01 T01750088  RH  057%=      5-min Rain = 0
KMD1 181716Z 21011KT 18/09 A2993 RMK A01 T01750090  RH  058%=      5-min Rain = 0
KMD1 181717Z 21012G17KT 18/09 A2994 RMK A01 T01750092  RH  058%=      5-min Rain = 0
KMD1 181718Z 21013KT 18/09 A2994 RMK A01 T01750090  RH  057%=      5-min Rain = 0
KMD1 181719Z 21013KT 18/09 A2994 RMK A01 T01750090  RH  057%=      5-min Rain = 0
KMD1 181720Z 22011G16KT 18/09 A2994 RMK A01 T01750092  RH  058%=      5-min Rain = 0
KMD1 181721Z 22015G20KT 18/09 A2994 RMK A01 T01750090  RH  057%=      5-min Rain = 0
KMD1 181722Z 22015KT 18/09 A2994 RMK A01 T01750087  RH  056%=      5-min Rain = 0
KMD1 181723Z 22011KT 18/09 A2995 RMK A01 T01750089  RH  057%=      5-min Rain = 0
KMD1 181724Z 22012KT 18/09 A2995 RMK A01 T01750091  RH  058%=      5-min Rain = 0
KMD1 181725Z 23012KT 18/09 A2995 RMK A01 T01760091  RH  057%=      5-min Rain = 0
KMD1 181726Z 22010KT 18/09 A2995 RMK A01 T01770092  RH  057%=      5-min Rain = 0
KMD1 181727Z 21013KT 18/09 A2994 RMK A01 T01770093  RH  058%=      5-min Rain = 0
KMD1 181728Z 21012KT 18/09 A2994 RMK A01 T01770093  RH  058%=      5-min Rain = 0
KMD1 181729Z 21013KT 18/09 A2994 RMK A01 T01770092  RH  057%=      5-min Rain = 0
KMD1 181730Z 20011KT 18/09 A2994 RMK A01 T01760093  RH  058%=      5-min Rain = 0
KMD1 181731Z 20012KT 18/09 A2994 RMK A01 T01770093  RH  058%=      5-min Rain = 0
KMD1 181732Z 21013G18KT 18/09 A2994 RMK A01 T01770093  RH  058%=      5-min Rain = 0
KMD1 181733Z 21015KT 18/09 A2994 RMK A01 T01760092  RH  058%=      5-min Rain = 0
KMD1 181734Z 21015KT 18/09 A2994 RMK A01 T01760093  RH  058%=      5-min Rain = 0
KMD1 181735Z 21011KT 18/09 A2994 RMK A01 T01760094  RH  058%=      5-min Rain = 0
KMD1 181736Z 21012KT 18/09 A2994 RMK A01 T01760094  RH  059%=      5-min Rain = 0
KMD1 181737Z 21014KT 18/09 A2994 RMK A01 T01760092  RH  058%=      5-min Rain = 0
KMD1 181738Z 21015KT 18/09 A2994 RMK A01 T01760093  RH  058%=      5-min Rain = 0
KMD1 181739Z 21014KT 18/09 A2994 RMK A01 T01750094  RH  059%=      5-min Rain = 0
KMD1 181740Z 21013KT 18/09 A2994 RMK A01 T01750093  RH  059%=      5-min Rain = 0
KMD1 181741Z 21014KT 18/09 A2994 RMK A01 T01760094  RH  058%=      5-min Rain = 0
KMD1 181742Z 22015G20KT 18/09 A2993 RMK A01 T01760093  RH  058%=      5-min Rain = 0
KMD1 181743Z 22012KT 18/09 A2993 RMK A01 T01770093  RH  058%=      5-min Rain = 0
KMD1 181744Z 21013KT 18/09 A2993 RMK A01 T01770094  RH  059%=      5-min Rain = 0
KMD1 181745Z 21013KT 18/09 A2993 RMK A01 T01770093  RH  058%=      5-min Rain = 0
KMD1 181746Z 21012KT 18/09 A2993 RMK A01 T01770094  RH  058%=      5-min Rain = 0
KMD1 181747Z 20009KT 18/10 A2993 RMK A01 T01780096  RH  058%=      5-min Rain = 0
KMD1 181748Z 22010KT 18/10 A2993 RMK A01 T01800096  RH  058%=      5-min Rain = 0
KMD1 181749Z 22010KT 18/10 A2993 RMK A01 T01810097  RH  058%=      5-min Rain = 0
KMD1 181750Z 20010KT 18/10 A2993 RMK A01 T01820098  RH  058%=      5-min Rain = 0
KMD1 181751Z 20012KT 18/10 A2993 RMK A01 T01830096  RH  057%=      5-min Rain = 0
KMD1 181752Z 20012KT 18/10 A2993 RMK A01 T01820096  RH  057%=      5-min Rain = 0
KMD1 181753Z 21008KT 18/10 A2993 RMK A01 T01820098  RH  058%=      5-min Rain = 0
KMD1 181754Z 21008KT 18/10 A2993 RMK A01 T01830100  RH  058%=      5-min Rain = 0
KMD1 181755Z 21009KT 18/10 A2993 RMK A01 T01840100  RH  058%=      5-min Rain = 0
KMD1 181756Z 20013KT 19/10 A2993 RMK A01 T01850096  RH  056%=      5-min Rain = 0
KMD1 181757Z 20012KT 18/10 A2993 RMK A01 T01830095  RH  056%=      5-min Rain = 0
KMD1 181758Z 21009KT 18/10 A2993 RMK A01 T01820098  RH  058%=      5-min Rain = 0
KMD1 181759Z 21009KT 18/10 A2993 RMK A01 T01830098  RH  058%=      5-min Rain = 0
KMD1 181800Z 21008KT 18/10 A2993 RMK A01 T01840099  RH  057%=      5-min Rain = 0
KMD1 181801Z 21009KT 19/10 A2993 RMK A01 T01860100  RH  057%=      5-min Rain = 0
KMD1 181802Z 20010G15KT 19/10 A2993 RMK A01 T01860097  RH  056%=      5-min Rain = 0
KMD1 181803Z 21011KT 19/10 A2992 RMK A01 T01860098  RH  056%=      5-min Rain = 0
KMD1 181804Z 20013KT 19/10 A2992 RMK A01 T01860097  RH  056%=      5-min Rain = 0
KMD1 181805Z 20012KT 19/10 A2992 RMK A01 T01860097  RH  056%=      5-min Rain = 0
KMD1 181806Z 20012KT 19/10 A2992 RMK A01 T01860097  RH  056%=      5-min Rain = 0
KMD1 181807Z 21010KT 19/10 A2991 RMK A01 T01860098  RH  056%=      5-min Rain = 0
KMD1 181808Z 21013KT 19/10 A2991 RMK A01 T01870097  RH  056%=      5-min Rain = 0
KMD1 181809Z 21014KT 19/10 A2991 RMK A01 T01880096  RH  055%=      5-min Rain = 0
KMD1 181810Z 21013KT 19/10 A2991 RMK A01 T01880095  RH  055%=      5-min Rain = 0
KMD1 181811Z 21013KT 19/10 A2991 RMK A01 T01870096  RH  055%=      5-min Rain = 0
KMD1 181812Z 21011KT 19/10 A2991 RMK A01 T01880097  RH  056%=      5-min Rain = 0
KMD1 181813Z 21013KT 19/10 A2991 RMK A01 T01880096  RH  055%=      5-min Rain = 0
KMD1 181814Z 22010G15KT 19/10 A2991 RMK A01 T01880096  RH  055%=      5-min Rain = 0
KMD1 181815Z 21010KT 19/10 A2991 RMK A01 T01890099  RH  056%=      5-min Rain = 0
KMD1 181816Z 20010KT 19/10 A2991 RMK A01 T01890098  RH  055%=      5-min Rain = 0
KMD1 181817Z 21010KT 19/10 A2991 RMK A01 T01900101  RH  056%=      5-min Rain = 0
KMD1 181818Z 22011KT 19/10 A2991 RMK A01 T01920100  RH  055%=      5-min Rain = 0
KMD1 181819Z 21010KT 19/10 A2991 RMK A01 T01930096  RH  054%=      5-min Rain = 0
KMD1 181820Z 21011KT 19/10 A2991 RMK A01 T01920098  RH  054%=      5-min Rain = 0
KMD1 181821Z 21010KT 19/10 A2991 RMK A01 T01920100  RH  055%=      5-min Rain = 0
KMD1 181822Z 21013KT 19/10 A2991 RMK A01 T01930099  RH  054%=      5-min Rain = 0
KMD1 181823Z 20014KT 19/10 A2991 RMK A01 T01920098  RH  054%=      5-min Rain = 0
KMD1 181824Z 21013KT 19/10 A299 RMK A01 T01910097  RH  054%=      5-min Rain = 0
KMD1 181825Z 21011KT 19/10 A299 RMK A01 T01910098  RH  055%=      5-min Rain = 0
KMD1 181826Z 21009KT 19/10 A299 RMK A01 T01910099  RH  055%=      5-min Rain = 0
KMD1 181827Z 21010KT 19/10 A299 RMK A01 T01910099  RH  055%=      5-min Rain = 0
KMD1 181828Z 22013KT 19/10 A299 RMK A01 T01910098  RH  055%=      5-min Rain = 0
KMD1 181829Z 22010KT 19/10 A299 RMK A01 T01910098  RH  055%=      5-min Rain = 0
KMD1 181830Z 22009KT 19/10 A299 RMK A01 T01910099  RH  055%=      5-min Rain = 0
KMD1 181831Z 22008KT 19/10 A299 RMK A01 T01920099  RH  055%=      5-min Rain = 0
KMD1 181832Z 23010KT 19/10 A299 RMK A01 T01930100  RH  055%=      5-min Rain = 0
KMD1 181833Z 23014KT 19/10 A299 RMK A01 T01930097  RH  053%=      5-min Rain = 0
KMD1 181834Z 23016KT 19/09 A299 RMK A01 T01940094  RH  052%=      5-min Rain = 0
KMD1 181835Z 22014KT 19/09 A299 RMK A01 T01930094  RH  053%=      5-min Rain = 0
KMD1 181836Z 22015KT 19/09 A299 RMK A01 T01930094  RH  053%=      5-min Rain = 0
KMD1 181837Z 23015KT 19/10 A299 RMK A01 T01930095  RH  053%=      5-min Rain = 0
KMD1 181838Z 22014KT 19/10 A2989 RMK A01 T01930095  RH  053%=      5-min Rain = 0
KMD1 181839Z 22012KT 19/10 A2989 RMK A01 T01930096  RH  053%=      5-min Rain = 0
KMD1 181840Z 22014KT 19/10 A2989 RMK A01 T01940096  RH  053%=      5-min Rain = 0
KMD1 181841Z 21011KT 20/10 A2989 RMK A01 T01950096  RH  053%=      5-min Rain = 0
KMD1 181842Z 22013KT 20/10 A2989 RMK A01 T01960097  RH  053%=      5-min Rain = 0
KMD1 181843Z 22013KT 20/10 A2989 RMK A01 T01970096  RH  052%=      5-min Rain = 0
KMD1 181844Z 21012G17KT 20/10 A2989 RMK A01 T01980098  RH  052%=      5-min Rain = 0
KMD1 181845Z 22014KT 20/10 A2989 RMK A01 T02000099  RH  052%=      5-min Rain = 0
KMD1 181846Z 22013G18KT 20/10 A2989 RMK A01 T02000097  RH  051%=      5-min Rain = 0
KMD1 181847Z 23014KT 20/10 A2989 RMK A01 T02000096  RH  051%=      5-min Rain = 0
KMD1 181848Z 24013KT 20/10 A2989 RMK A01 T02000098  RH  052%=      5-min Rain = 0
KMD1 181849Z 24012G18KT 20/10 A2989 RMK A01 T02000098  RH  052%=      5-min Rain = 0
KMD1 181850Z 22013G18KT 20/10 A2989 RMK A01 T02000097  RH  052%=      5-min Rain = 0
KMD1 181851Z 22013KT 20/10 A2989 RMK A01 T02010098  RH  052%=      5-min Rain = 0
KMD1 181852Z 23011G18KT 20/10 A2989 RMK A01 T02010100  RH  052%=      5-min Rain = 0
KMD1 181853Z 23011KT 20/10 A2988 RMK A01 T02030100  RH  052%=      5-min Rain = 0
KMD1 181854Z 22014KT 20/10 A2988 RMK A01 T02040100  RH  051%=      5-min Rain = 0
KMD1 181855Z 23014G19KT 21/10 A2988 RMK A01 T02050098  RH  050%=      5-min Rain = 0
KMD1 181856Z 22016G21KT 20/10 A2988 RMK A01 T02040097  RH  050%=      5-min Rain = 0
KMD1 181857Z 22013KT 20/10 A2988 RMK A01 T02030097  RH  051%=      5-min Rain = 0
KMD1 181858Z 22014KT 20/10 A2988 RMK A01 T02030099  RH  051%=      5-min Rain = 0
KMD1 181859Z 21016KT 20/10 A2988 RMK A01 T02040098  RH  051%=      5-min Rain = 0
KMD1 181900Z 21015KT 20/10 A2988 RMK A01 T02030098  RH  051%=      5-min Rain = 0
KMD1 181901Z 21012KT 20/10 A2988 RMK A01 T02030098  RH  051%=      5-min Rain = 0
KMD1 181902Z 23014G19KT 20/10 A2988 RMK A01 T02030099  RH  051%=      5-min Rain = 0
KMD1 181903Z 23017KT 20/10 A2987 RMK A01 T02030097  RH  050%=      5-min Rain = 0
KMD1 181904Z 22015KT 20/10 A2987 RMK A01 T02040099  RH  051%=      5-min Rain = 0
KMD1 181905Z 21011KT 21/10 A2987 RMK A01 T02050103  RH  052%=      5-min Rain = 0
KMD1 181906Z 21014G20KT 21/10 A2987 RMK A01 T02060101  RH  051%=      5-min Rain = 0
KMD1 181907Z 21015KT 21/10 A2987 RMK A01 T02060099  RH  050%=      5-min Rain = 0
KMD1 181908Z 21014G19KT 21/10 A2987 RMK A01 T02050101  RH  051%=      5-min Rain = 0
KMD1 181909Z 22015KT 21/10 A2987 RMK A01 T02050100  RH  051%=      5-min Rain = 0
KMD1 181910Z 22013KT 21/10 A2987 RMK A01 T02050099  RH  050%=      5-min Rain = 0
KMD1 181911Z 22014G19KT 21/10 A2987 RMK A01 T02060100  RH  050%=      5-min Rain = 0
KMD1 181912Z 22017KT 21/10 A2987 RMK A01 T02070099  RH  050%=      5-min Rain = 0
KMD1 181913Z 21015KT 21/10 A2986 RMK A01 T02070097  RH  049%=      5-min Rain = 0
KMD1 181914Z 22014G19KT 21/10 A2986 RMK A01 T02070100  RH  050%=      5-min Rain = 0
KMD1 181915Z 22014KT 21/10 A2986 RMK A01 T02070101  RH  050%=      5-min Rain = 0
KMD1 181916Z 23014KT 21/10 A2986 RMK A01 T02080101  RH  050%=      5-min Rain = 0
KMD1 181917Z 22013KT 21/10 A2986 RMK A01 T02080101  RH  050%=      5-min Rain = 0
KMD1 181918Z 23012KT 21/10 A2986 RMK A01 T02070101  RH  051%=      5-min Rain = 0
KMD1 181919Z 21013KT 21/10 A2986 RMK A01 T02080101  RH  050%=      5-min Rain = 0
KMD1 181920Z 20013KT 21/10 A2985 RMK A01 T02080102  RH  051%=      5-min Rain = 0
KMD1 181921Z 20015KT 21/10 A2985 RMK A01 T02080100  RH  050%=      5-min Rain = 0
KMD1 181922Z 20014KT 21/10 A2985 RMK A01 T02070100  RH  050%=      5-min Rain = 0
KMD1 181923Z 21015KT 21/10 A2985 RMK A01 T02070100  RH  050%=      5-min Rain = 0
KMD1 181924Z 23015KT 21/10 A2985 RMK A01 T02070101  RH  050%=      5-min Rain = 0
KMD1 181925Z 22014G19KT 21/10 A2985 RMK A01 T02070101  RH  050%=      5-min Rain = 0
KMD1 181926Z 22014KT 21/10 A2984 RMK A01 T02080100  RH  050%=      5-min Rain = 0
KMD1 181927Z 22015KT 21/10 A2984 RMK A01 T02080101  RH  050%=      5-min Rain = 0
KMD1 181928Z 21014KT 21/10 A2984 RMK A01 T02080102  RH  051%=      5-min Rain = 0
KMD1 181929Z 21014KT 21/10 A2984 RMK A01 T02090103  RH  051%=      5-min Rain = 0
KMD1 181930Z 21014KT 21/10 A2984 RMK A01 T02100102  RH  050%=      5-min Rain = 0
KMD1 181931Z 21014G19KT 21/10 A2983 RMK A01 T02090102  RH  050%=      5-min Rain = 0
KMD1 181932Z 20014KT 21/10 A2983 RMK A01 T02090103  RH  051%=      5-min Rain = 0
KMD1 181933Z 19015KT 21/10 A2983 RMK A01 T02090103  RH  051%=      5-min Rain = 0
KMD1 181934Z 20016KT 21/10 A2983 RMK A01 T02090103  RH  050%=      5-min Rain = 0
KMD1 181935Z 21011KT 21/10 A2983 RMK A01 T02100103  RH  050%=      5-min Rain = 0
KMD1 181936Z 21013KT 21/10 A2983 RMK A01 T02110102  RH  050%=      5-min Rain = 0
KMD1 181937Z 21011KT 21/11 A2983 RMK A01 T02110105  RH  051%=      5-min Rain = 0
KMD1 181938Z 20015KT 21/11 A2983 RMK A01 T02110105  RH  051%=      5-min Rain = 0
KMD1 181939Z 21014KT 21/11 A2983 RMK A01 T02100105  RH  051%=      5-min Rain = 0
KMD1 181940Z 20011KT 21/11 A2983 RMK A01 T02090108  RH  052%=      5-min Rain = 0
KMD1 181941Z 19009KT 21/11 A2983 RMK A01 T02090107  RH  052%=      5-min Rain = 0
KMD1 181942Z 20011KT 21/11 A2982 RMK A01 T02090109  RH  053%=      5-min Rain = 0
KMD1 181943Z 19012KT 21/11 A2982 RMK A01 T02110109  RH  052%=      5-min Rain = 0
KMD1 181944Z 21013KT 21/11 A2982 RMK A01 T02120109  RH  052%=      5-min Rain = 0
KMD1 181945Z 20014G19KT 21/11 A2982 RMK A01 T02120105  RH  050%=      5-min Rain = 0
KMD1 181946Z 20014KT 21/11 A2982 RMK A01 T02110106  RH  051%=      5-min Rain = 0
KMD1 181947Z 21013G18KT 21/11 A2982 RMK A01 T02100106  RH  051%=      5-min Rain = 0
KMD1 181948Z 20015KT 21/11 A2981 RMK A01 T02100105  RH  051%=      5-min Rain = 0
KMD1 181949Z 21013KT 21/11 A2981 RMK A01 T02100107  RH  052%=      5-min Rain = 0
KMD1 181950Z 20014KT 21/11 A2981 RMK A01 T02110108  RH  052%=      5-min Rain = 0
KMD1 181951Z 20013KT 21/11 A2981 RMK A01 T02110108  RH  052%=      5-min Rain = 0
KMD1 181952Z 19011KT 21/11 A298 RMK A01 T02100110  RH  052%=      5-min Rain = 0
KMD1 181953Z 20015KT 21/11 A298 RMK A01 T02100108  RH  052%=      5-min Rain = 0
KMD1 181954Z 20015KT 21/10 A298 RMK A01 T02110104  RH  050%=      5-min Rain = 0
KMD1 181955Z 20017KT 21/11 A298 RMK A01 T02110105  RH  051%=      5-min Rain = 0
KMD1 181956Z 21016KT 21/10 A298 RMK A01 T02110104  RH  050%=      5-min Rain = 0
KMD1 181957Z 21013KT 21/10 A298 RMK A01 T02110104  RH  050%=      5-min Rain = 0
KMD1 181958Z 21010KT 21/11 A298 RMK A01 T02120106  RH  051%=      5-min Rain = 0
KMD1 181959Z 22013KT 21/11 A298 RMK A01 T02130105  RH  050%=      5-min Rain = 0
KMD1 182000Z 21013KT 21/11 A298 RMK A01 T02140105  RH  050%=      5-min Rain = 0
KMD1 182001Z 20012KT 22/11 A298 RMK A01 T02150105  RH  050%=      5-min Rain = 0
KMD1 182002Z 21013KT 22/10 A298 RMK A01 T02160104  RH  049%=      5-min Rain = 0
KMD1 182003Z 21014KT 22/11 A2979 RMK A01 T02160105  RH  049%=      5-min Rain = 0
KMD1 182004Z 20010KT 22/11 A2979 RMK A01 T02160109  RH  051%=      5-min Rain = 0
KMD1 182005Z 20015KT 22/11 A2979 RMK A01 T02160109  RH  051%=      5-min Rain = 0
KMD1 182006Z 20014G20KT 22/11 A2979 RMK A01 T02160107  RH  050%=      5-min Rain = 0
KMD1 182007Z 20013G18KT 22/11 A2979 RMK A01 T02170110  RH  051%=      5-min Rain = 0
KMD1 182008Z 20013KT 22/11 A2978 RMK A01 T02180107  RH  049%=      5-min Rain = 0
KMD1 182009Z 20014KT 22/11 A2978 RMK A01 T02180107  RH  049%=      5-min Rain = 0
KMD1 182010Z 20015KT 22/11 A2978 RMK A01 T02180106  RH  049%=      5-min Rain = 0
KMD1 182011Z 20018KT 22/10 A2978 RMK A01 T02190104  RH  048%=      5-min Rain = 0
KMD1 182012Z 21013G19KT 22/10 A2978 RMK A01 T02180104  RH  048%=      5-min Rain = 0
KMD1 182013Z 20013KT 22/11 A2978 RMK A01 T02170105  RH  049%=      5-min Rain = 0
KMD1 182014Z 20015G20KT 22/11 A2978 RMK A01 T02170105  RH  049%=      5-min Rain = 0
KMD1 182015Z 20015KT 22/10 A2978 RMK A01 T02170104  RH  048%=      5-min Rain = 0
KMD1 182016Z 21015KT 22/10 A2978 RMK A01 T02180104  RH  048%=      5-min Rain = 0
KMD1 182017Z 22015KT 22/10 A2978 RMK A01 T02190102  RH  047%=      5-min Rain = 0
KMD1 182018Z 21015KT 22/10 A2978 RMK A01 T02180101  RH  047%=      5-min Rain = 0
KMD1 182019Z 20017KT 22/10 A2978 RMK A01 T02170101  RH  047%=      5-min Rain = 0
KMD1 182020Z 19016KT 22/10 A2978 RMK A01 T02180100  RH  047%=      5-min Rain = 0
KMD1 182021Z 19018G23KT 22/10 A2978 RMK A01 T02180101  RH  047%=      5-min Rain = 0
KMD1 182022Z 19017KT 22/10 A2978 RMK A01 T02170101  RH  048%=      5-min Rain = 0
KMD1 182023Z 21016KT 22/10 A2978 RMK A01 T02170102  RH  048%=      5-min Rain = 0
KMD1 182024Z 22012KT 22/10 A2978 RMK A01 T02180103  RH  048%=      5-min Rain = 0
KMD1 182025Z 21012G17KT 22/10 A2979 RMK A01 T02190103  RH  048%=      5-min Rain = 0
KMD1 182026Z 21016KT 22/10 A2979 RMK A01 T02210102  RH  047%=      5-min Rain = 0
KMD1 182027Z 21017KT 22/10 A2979 RMK A01 T02210101  RH  046%=      5-min Rain = 0
KMD1 182028Z 21012KT 22/10 A2979 RMK A01 T02200100  RH  046%=      5-min Rain = 0
KMD1 182029Z 21014KT 22/10 A2979 RMK A01 T02200101  RH  047%=      5-min Rain = 0
KMD1 182030Z 22012KT 22/10 A2979 RMK A01 T02220103  RH  047%=      5-min Rain = 0
KMD1 182031Z 22013KT 22/10 A2979 RMK A01 T02230102  RH  046%=      5-min Rain = 0
KMD1 182032Z 21014KT 22/10 A2979 RMK A01 T02230100  RH  045%=      5-min Rain = 0
KMD1 182033Z 22015KT 22/10 A2979 RMK A01 T02230102  RH  046%=      5-min Rain = 0
KMD1 182034Z 22014KT 22/10 A2979 RMK A01 T02230103  RH  046%=      5-min Rain = 0
KMD1 182035Z 23014KT 22/10 A2978 RMK A01 T02230101  RH  046%=      5-min Rain = 0
KMD1 182036Z 21013KT 22/10 A2978 RMK A01 T02220102  RH  046%=      5-min Rain = 0
KMD1 182037Z 21011KT 22/10 A2978 RMK A01 T02220104  RH  047%=      5-min Rain = 0
KMD1 182038Z 21011KT 22/11 A2978 RMK A01 T02240106  RH  047%=      5-min Rain = 0
KMD1 182039Z 22011KT 23/11 A2978 RMK A01 T02260107  RH  047%=      5-min Rain = 0
KMD1 182040Z 23011KT 23/11 A2978 RMK A01 T02270105  RH  046%=      5-min Rain = 0
KMD1 182041Z 23015KT 23/10 A2978 RMK A01 T02280102  RH  045%=      5-min Rain = 0
KMD1 182042Z 23014KT 23/10 A2978 RMK A01 T02260102  RH  045%=      5-min Rain = 0
KMD1 182043Z 22015KT 23/10 A2978 RMK A01 T02270101  RH  045%=      5-min Rain = 0
KMD1 182044Z 22014KT 23/10 A2978 RMK A01 T02270100  RH  045%=      5-min Rain = 0
KMD1 182045Z 22015KT 23/10 A2978 RMK A01 T02260102  RH  045%=      5-min Rain = 0
KMD1 182046Z 21011KT 23/10 A2978 RMK A01 T02250103  RH  046%=      5-min Rain = 0
KMD1 182047Z 22012G17KT 23/11 A2978 RMK A01 T02260105  RH  046%=      5-min Rain = 0
KMD1 182048Z 22016KT 23/10 A2978 RMK A01 T02280099  RH  044%=      5-min Rain = 0
KMD1 182049Z 23016KT 23/10 A2978 RMK A01 T02280097  RH  043%=      5-min Rain = 0
KMD1 182050Z 23013G19KT 23/10 A2978 RMK A01 T02260096  RH  043%=      5-min Rain = 0
KMD1 182051Z 23014KT 23/10 A2978 RMK A01 T02260096  RH  044%=      5-min Rain = 0
KMD1 182052Z 23014KT 23/10 A2978 RMK A01 T02260098  RH  044%=      5-min Rain = 0
KMD1 182053Z 22016KT 23/10 A2978 RMK A01 T02270098  RH  044%=      5-min Rain = 0
KMD1 182054Z 23014KT 23/10 A2978 RMK A01 T02270096  RH  043%=      5-min Rain = 0
KMD1 182055Z 23012KT 23/10 A2978 RMK A01 T02260097  RH  044%=      5-min Rain = 0
KMD1 182056Z 22013G18KT 23/10 A2978 RMK A01 T02270098  RH  044%=      5-min Rain = 0
KMD1 182057Z 23015KT 23/10 A2978 RMK A01 T02280097  RH  043%=      5-min Rain = 0
KMD1 182058Z 21015KT 23/10 A2977 RMK A01 T02270099  RH  044%=      5-min Rain = 0
KMD1 182059Z 22013KT 23/10 A2977 RMK A01 T02270099  RH  044%=      5-min Rain = 0
KMD1 182100Z 23013G18KT 23/10 A2977 RMK A01 T02270100  RH  045%=      5-min Rain = 0
KMD1 182101Z 23017KT 23/10 A2977 RMK A01 T02260100  RH  045%=      5-min Rain = 0
KMD1 182102Z 23015KT 23/10 A2977 RMK A01 T02260099  RH  045%=      5-min Rain = 0
KMD1 182103Z 22013KT 23/10 A2977 RMK A01 T02250101  RH  045%=      5-min Rain = 0
KMD1 182104Z 21013KT 23/10 A2977 RMK A01 T02250101  RH  045%=      5-min Rain = 0
KMD1 182105Z 22011KT 23/10 A2977 RMK A01 T02250102  RH  045%=      5-min Rain = 0
KMD1 182106Z 21017KT 23/10 A2977 RMK A01 T02260102  RH  045%=      5-min Rain = 0
KMD1 182107Z 22016KT 23/10 A2977 RMK A01 T02260098  RH  044%=      5-min Rain = 0
KMD1 182108Z 22013KT 23/10 A2977 RMK A01 T02260099  RH  044%=      5-min Rain = 0
KMD1 182109Z 20016KT 23/10 A2976 RMK A01 T02260099  RH  045%=      5-min Rain = 0
KMD1 182110Z 21016KT 23/10 A2976 RMK A01 T02260100  RH  045%=      5-min Rain = 0
KMD1 182111Z 22014KT 23/10 A2976 RMK A01 T02260101  RH  045%=      5-min Rain = 0
KMD1 182112Z 21013KT 23/10 A2976 RMK A01 T02270101  RH  045%=      5-min Rain = 0
KMD1 182113Z 23011KT 23/10 A2976 RMK A01 T02270100  RH  045%=      5-min Rain = 0
KMD1 182114Z 23012KT 23/10 A2976 RMK A01 T02280098  RH  044%=      5-min Rain = 0
KMD1 182115Z 23012KT 23/10 A2976 RMK A01 T02270099  RH  044%=      5-min Rain = 0
KMD1 182116Z 23013KT 23/10 A2976 RMK A01 T02290098  RH  043%=      5-min Rain = 0
KMD1 182117Z 22014KT 23/10 A2976 RMK A01 T02290096  RH  043%=      5-min Rain = 0
KMD1 182118Z 22017KT 23/09 A2976 RMK A01 T02280094  RH  043%=      5-min Rain = 0
KMD1 182119Z 22014KT 23/10 A2976 RMK A01 T02260095  RH  043%=      5-min Rain = 0
KMD1 182120Z 22016G21KT 23/10 A2976 RMK A01 T02260095  RH  043%=      5-min Rain = 0
KMD1 182121Z 22013KT 23/10 A2976 RMK A01 T02250096  RH  044%=      5-min Rain = 0
KMD1 182122Z 23012KT 23/10 A2976 RMK A01 T02260099  RH  044%=      5-min Rain = 0
KMD1 182123Z 23015KT 23/10 A2976 RMK A01 T02270096  RH  043%=      5-min Rain = 0
KMD1 182124Z 23011KT 23/10 A2976 RMK A01 T02260095  RH  043%=      5-min Rain = 0
KMD1 182125Z 22012KT 23/10 A2975 RMK A01 T02260096  RH  044%=      5-min Rain = 0
KMD1 182126Z 23013KT 23/10 A2975 RMK A01 T02260095  RH  043%=      5-min Rain = 0
KMD1 182127Z 21013G18KT 23/10 A2975 RMK A01 T02260096  RH  044%=      5-min Rain = 0
KMD1 182128Z 21014KT 23/09 A2975 RMK A01 T02260094  RH  043%=      5-min Rain = 0
KMD1 182129Z 21014G19KT 23/09 A2975 RMK A01 T02260094  RH  043%=      5-min Rain = 0
KMD1 182130Z 21012KT 23/10 A2975 RMK A01 T02260095  RH  043%=      5-min Rain = 0
KMD1 182131Z 21014KT 23/10 A2975 RMK A01 T02260095  RH  043%=      5-min Rain = 0
KMD1 182132Z 20015KT 23/09 A2975 RMK A01 T02260094  RH  043%=      5-min Rain = 0
KMD1 182133Z 20015KT 23/10 A2974 RMK A01 T02260096  RH  044%=      5-min Rain = 0
KMD1 182134Z 20016KT 23/10 A2975 RMK A01 T02260096  RH  044%=      5-min Rain = 0
KMD1 182135Z 22017G22KT 23/09 A2975 RMK A01 T02260094  RH  043%=      5-min Rain = 0
KMD1 182136Z 22014KT 23/10 A2975 RMK A01 T02260096  RH  043%=      5-min Rain = 0
KMD1 182137Z 21016KT 23/10 A2975 RMK A01 T02260096  RH  044%=      5-min Rain = 0
KMD1 182138Z 22012G17KT 23/10 A2975 RMK A01 T02270096  RH  043%=      5-min Rain = 0
KMD1 182139Z 22012KT 23/10 A2975 RMK A01 T02270095  RH  043%=      5-min Rain = 0
KMD1 182140Z 22013KT 23/10 A2975 RMK A01 T02270095  RH  043%=      5-min Rain = 0
KMD1 182141Z 21015KT 23/10 A2975 RMK A01 T02280097  RH  043%=      5-min Rain = 0
KMD1 182142Z 21013KT 23/10 A2975 RMK A01 T02260098  RH  044%=      5-min Rain = 0
KMD1 182143Z 22013KT 23/10 A2975 RMK A01 T02260096  RH  044%=      5-min Rain = 0
KMD1 182144Z 21011G20KT 23/10 A2975 RMK A01 T02260097  RH  044%=      5-min Rain = 0
KMD1 182145Z 20015G21KT 23/10 A2974 RMK A01 T02270095  RH  043%=      5-min Rain = 0
KMD1 182146Z 20014KT 23/10 A2974 RMK A01 T02260097  RH  044%=      5-min Rain = 0
KMD1 182147Z 21014KT 23/10 A2974 RMK A01 T02260096  RH  044%=      5-min Rain = 0
KMD1 182148Z 20013KT 23/10 A2974 RMK A01 T02260095  RH  043%=      5-min Rain = 0
KMD1 182149Z 22012KT 23/10 A2974 RMK A01 T02260096  RH  043%=      5-min Rain = 0
KMD1 182150Z 23013KT 23/10 A2974 RMK A01 T02270097  RH  044%=      5-min Rain = 0
KMD1 182151Z 21015KT 23/10 A2974 RMK A01 T02270095  RH  043%=      5-min Rain = 0
KMD1 182152Z 21014KT 23/10 A2974 RMK A01 T02260095  RH  043%=      5-min Rain = 0
KMD1 182153Z 22012KT 23/10 A2974 RMK A01 T02250096  RH  044%=      5-min Rain = 0
KMD1 182154Z 23011KT 23/10 A2974 RMK A01 T02250095  RH  043%=      5-min Rain = 0
KMD1 182155Z 23013KT 23/09 A2974 RMK A01 T02250092  RH  042%=      5-min Rain = 0
KMD1 182156Z 23009KT 23/09 A2974 RMK A01 T02250093  RH  043%=      5-min Rain = 0
KMD1 182157Z 23012KT 23/09 A2974 RMK A01 T02250093  RH  043%=      5-min Rain = 0
KMD1 182158Z 22011KT 22/09 A2974 RMK A01 T02240092  RH  043%=      5-min Rain = 0
KMD1 182159Z 23011G17KT 22/09 A2974 RMK A01 T02230094  RH  044%=      5-min Rain = 0
KMD1 182200Z 23011KT 22/09 A2974 RMK A01 T02230094  RH  044%=      5-min Rain = 0
KMD1 182201Z 23010KT 22/10 A2974 RMK A01 T02240095  RH  044%=      5-min Rain = 0
KMD1 182202Z 22012KT 23/09 A2974 RMK A01 T02250093  RH  043%=      5-min Rain = 0
KMD1 182203Z 22011G17KT 23/09 A2974 RMK A01 T02250093  RH  043%=      5-min Rain = 0
KMD1 182204Z 21012KT 23/09 A2974 RMK A01 T02250092  RH  043%=      5-min Rain = 0
KMD1 182205Z 22013KT 23/09 A2974 RMK A01 T02250092  RH  042%=      5-min Rain = 0
KMD1 182206Z 21015KT 23/09 A2974 RMK A01 T02260091  RH  042%=      5-min Rain = 0
KMD1 182207Z 22010KT 23/09 A2974 RMK A01 T02260092  RH  043%=      5-min Rain = 0
KMD1 182208Z 22010KT 23/09 A2974 RMK A01 T02270094  RH  043%=      5-min Rain = 0
KMD1 182209Z 21010KT 23/09 A2974 RMK A01 T02280093  RH  042%=      5-min Rain = 0
KMD1 182210Z 22011KT 23/09 A2974 RMK A01 T02280091  RH  042%=      5-min Rain = 0
KMD1 182211Z 22009KT 23/09 A2974 RMK A01 T02270093  RH  042%=      5-min Rain = 0
KMD1 182212Z 23014KT 23/09 A2974 RMK A01 T02270091  RH  042%=      5-min Rain = 0
KMD1 182213Z 23014KT 23/09 A2974 RMK A01 T02250090  RH  042%=      5-min Rain = 0
KMD1 182214Z 23017G22KT 22/09 A2974 RMK A01 T02240087  RH  042%=      5-min Rain = 0
KMD1 182215Z 24016KT 22/09 A2974 RMK A01 T02240086  RH  041%=      5-min Rain = 0
KMD1 182216Z 23014KT 22/09 A2974 RMK A01 T02230087  RH  042%=      5-min Rain = 0
KMD1 182217Z 23014KT 22/09 A2974 RMK A01 T02230088  RH  042%=      5-min Rain = 0
KMD1 182218Z 23014KT 22/09 A2974 RMK A01 T02240087  RH  041%=      5-min Rain = 0
KMD1 182219Z 23011KT 22/09 A2973 RMK A01 T02240088  RH  042%=      5-min Rain = 0
KMD1 182220Z 23012KT 23/09 A2973 RMK A01 T02250088  RH  042%=      5-min Rain = 0
KMD1 182221Z 23012KT 23/09 A2973 RMK A01 T02260088  RH  041%=      5-min Rain = 0
KMD1 182222Z 23012KT 23/09 A2973 RMK A01 T02260088  RH  041%=      5-min Rain = 0
KMD1 182223Z 23012KT 23/09 A2973 RMK A01 T02260089  RH  041%=      5-min Rain = 0
KMD1 182224Z 22011KT 23/09 A2974 RMK A01 T02270089  RH  041%=      5-min Rain = 0
KMD1 182225Z 23011KT 23/09 A2974 RMK A01 T02270089  RH  041%=      5-min Rain = 0
KMD1 182226Z 23016KT 23/09 A2974 RMK A01 T02270086  RH  041%=      5-min Rain = 0
KMD1 182227Z 22014KT 23/09 A2974 RMK A01 T02270085  RH  040%=      5-min Rain = 0
KMD1 182228Z 22017KT 23/08 A2974 RMK A01 T02260084  RH  040%=      5-min Rain = 0
KMD1 182229Z 22016KT 23/08 A2974 RMK A01 T02260084  RH  040%=      5-min Rain = 0
KMD1 182230Z 21015KT 23/08 A2974 RMK A01 T02260084  RH  040%=      5-min Rain = 0
KMD1 182231Z 22010KT 23/09 A2974 RMK A01 T02260086  RH  041%=      5-min Rain = 0
KMD1 182232Z 22012KT 23/09 A2974 RMK A01 T02270088  RH  041%=      5-min Rain = 0
KMD1 182233Z 22012G17KT 23/09 A2974 RMK A01 T02280087  RH  041%=      5-min Rain = 0
KMD1 182234Z 22014KT 23/09 A2974 RMK A01 T02270089  RH  041%=      5-min Rain = 0
KMD1 182235Z 21011G16KT 23/09 A2974 RMK A01 T02270090  RH  042%=      5-min Rain = 0
KMD1 182236Z 21014KT 23/09 A2974 RMK A01 T02270091  RH  042%=      5-min Rain = 0
KMD1 182237Z 22012G17KT 23/09 A2974 RMK A01 T02270089  RH  041%=      5-min Rain = 0
KMD1 182238Z 22013KT 23/09 A2973 RMK A01 T02270089  RH  041%=      5-min Rain = 0
KMD1 182239Z 23010KT 23/09 A2973 RMK A01 T02270091  RH  042%=      5-min Rain = 0
KMD1 182240Z 23015KT 23/09 A2973 RMK A01 T02270086  RH  040%=      5-min Rain = 0
KMD1 182241Z 23012KT 23/08 A2973 RMK A01 T02280084  RH  040%=      5-min Rain = 0
KMD1 182242Z 24015KT 23/08 A2973 RMK A01 T02280081  RH  039%=      5-min Rain = 0
KMD1 182243Z 24012KT 23/08 A2973 RMK A01 T02280081  RH  039%=      5-min Rain = 0
KMD1 182244Z 24015KT 23/08 A2973 RMK A01 T02280079  RH  038%=      5-min Rain = 0
KMD1 182245Z 24014G19KT 23/08 A2973 RMK A01 T02280075  RH  037%=      5-min Rain = 0
KMD1 182246Z 23014G19KT 23/08 A2973 RMK A01 T02280075  RH  037%=      5-min Rain = 0
KMD1 182247Z 23013G19KT 23/08 A2973 RMK A01 T02280075  RH  037%=      5-min Rain = 0
KMD1 182248Z 24012KT 23/08 A2973 RMK A01 T02280076  RH  038%=      5-min Rain = 0
KMD1 182249Z 23012KT 23/08 A2973 RMK A01 T02280077  RH  038%=      5-min Rain = 0
KMD1 182250Z 23014KT 23/08 A2973 RMK A01 T02280078  RH  038%=      5-min Rain = 0
KMD1 182251Z 23013KT 23/08 A2973 RMK A01 T02280077  RH  038%=      5-min Rain = 0
KMD1 182252Z 22012KT 23/08 A2972 RMK A01 T02280079  RH  038%=      5-min Rain = 0
KMD1 182253Z 22010KT 23/08 A2972 RMK A01 T02270080  RH  039%=      5-min Rain = 0
KMD1 182254Z 21012G18KT 23/08 A2972 RMK A01 T02270081  RH  039%=      5-min Rain = 0
KMD1 182255Z 21013KT 23/08 A2972 RMK A01 T02270076  RH  038%=      5-min Rain = 0
KMD1 182256Z 21011KT 23/08 A2971 RMK A01 T02270078  RH  038%=      5-min Rain = 0
KMD1 182257Z 23011KT 23/08 A2972 RMK A01 T02270079  RH  039%=      5-min Rain = 0
KMD1 182258Z 22012KT 23/08 A2972 RMK A01 T02270076  RH  038%=      5-min Rain = 0
KMD1 182259Z 23012G19KT 23/08 A2972 RMK A01 T02270076  RH  038%=      5-min Rain = 0
KMD1 182300Z 23014G20KT 23/07 A2972 RMK A01 T02270074  RH  037%=      5-min Rain = 0
KMD1 182301Z 22015KT 23/07 A2972 RMK A01 T02270074  RH  037%=      5-min Rain = 0
KMD1 182302Z 24012KT 23/07 A2972 RMK A01 T02270074  RH  037%=      5-min Rain = 0
KMD1 182303Z 24014G19KT 23/07 A2972 RMK A01 T02260074  RH  038%=      5-min Rain = 0
KMD1 182304Z 23014KT 23/07 A2973 RMK A01 T02260071  RH  037%=      5-min Rain = 0
KMD1 182305Z 24016KT 23/07 A2973 RMK A01 T02260071  RH  037%=      5-min Rain = 0
KMD1 182306Z 24016KT 23/07 A2973 RMK A01 T02260071  RH  037%=      5-min Rain = 0
KMD1 182307Z 24014KT 23/07 A2973 RMK A01 T02260071  RH  037%=      5-min Rain = 0
KMD1 182308Z 24012KT 23/07 A2973 RMK A01 T02260072  RH  037%=      5-min Rain = 0
KMD1 182309Z 24013KT 23/07 A2973 RMK A01 T02250074  RH  038%=      5-min Rain = 0
KMD1 182310Z 23011KT 23/07 A2973 RMK A01 T02250073  RH  038%=      5-min Rain = 0
KMD1 182311Z 24010KT 22/07 A2973 RMK A01 T02240074  RH  038%=      5-min Rain = 0
KMD1 182312Z 23012KT 22/07 A2973 RMK A01 T02240074  RH  038%=      5-min Rain = 0
KMD1 182313Z 24011KT 22/07 A2973 RMK A01 T02240074  RH  038%=      5-min Rain = 0
KMD1 182314Z 23012KT 22/07 A2973 RMK A01 T02240073  RH  038%=      5-min Rain = 0
KMD1 182315Z 23014KT 22/07 A2973 RMK A01 T02240071  RH  037%=      5-min Rain = 0
KMD1 182316Z 23012KT 22/07 A2973 RMK A01 T02240071  RH  037%=      5-min Rain = 0
KMD1 182317Z 23012KT 22/07 A2973 RMK A01 T02240071  RH  037%=      5-min Rain = 0
KMD1 182318Z 23010KT 22/07 A2973 RMK A01 T02230071  RH  038%=      5-min Rain = 0
KMD1 182319Z 23010KT 22/07 A2973 RMK A01 T02210072  RH  038%=      5-min Rain = 0
KMD1 182320Z 24012KT 22/07 A2972 RMK A01 T02210071  RH  038%=      5-min Rain = 0
KMD1 182321Z 24011KT 22/07 A2972 RMK A01 T02210072  RH  038%=      5-min Rain = 0
KMD1 182322Z 23010KT 22/07 A2972 RMK A01 T02210072  RH  038%=      5-min Rain = 0
KMD1 182323Z 23012KT 22/07 A2972 RMK A01 T02210072  RH  038%=      5-min Rain = 0
KMD1 182324Z 24014KT 22/07 A2972 RMK A01 T02200070  RH  038%=      5-min Rain = 0
KMD1 182325Z 24012KT 22/07 A2972 RMK A01 T02200069  RH  038%=      5-min Rain = 0
KMD1 182326Z 23014KT 22/07 A2972 RMK A01 T02200069  RH  038%=      5-min Rain = 0
KMD1 182327Z 23012KT 22/07 A2972 RMK A01 T02200068  RH  037%=      5-min Rain = 0
KMD1 182328Z 23011KT 22/07 A2972 RMK A01 T02210069  RH  038%=      5-min Rain = 0
KMD1 182329Z 24009KT 22/07 A2973 RMK A01 T02200071  RH  038%=      5-min Rain = 0
KMD1 182330Z 24009KT 22/07 A2973 RMK A01 T02190072  RH  039%=      5-min Rain = 0
KMD1 182331Z 23011KT 22/07 A2973 RMK A01 T02180071  RH  039%=      5-min Rain = 0
KMD1 182332Z 24009KT 22/07 A2973 RMK A01 T02180071  RH  039%=      5-min Rain = 0
KMD1 182333Z 23009KT 22/07 A2973 RMK A01 T02170072  RH  039%=      5-min Rain = 0
KMD1 182334Z 24009KT 22/07 A2973 RMK A01 T02160072  RH  039%=      5-min Rain = 0
KMD1 182335Z 23009KT 22/07 A2973 RMK A01 T02150071  RH  039%=      5-min Rain = 0
KMD1 182336Z 24009KT 22/07 A2972 RMK A01 T02150071  RH  040%=      5-min Rain = 0
KMD1 182337Z 24011KT 22/07 A2972 RMK A01 T02150071  RH  039%=      5-min Rain = 0
KMD1 182338Z 23009KT 22/07 A2972 RMK A01 T02160072  RH  039%=      5-min Rain = 0
KMD1 182339Z 24009KT 22/07 A2972 RMK A01 T02160073  RH  040%=      5-min Rain = 0
KMD1 182340Z 23009KT 22/07 A2972 RMK A01 T02150073  RH  040%=      5-min Rain = 0
KMD1 182341Z 23008KT 22/07 A2972 RMK A01 T02150073  RH  040%=      5-min Rain = 0
KMD1 182342Z 23008KT 21/07 A2972 RMK A01 T02140074  RH  040%=      5-min Rain = 0
KMD1 182343Z 23008KT 21/07 A2972 RMK A01 T02130074  RH  041%=      5-min Rain = 0
KMD1 182344Z 23008KT 21/07 A2972 RMK A01 T02120074  RH  041%=      5-min Rain = 0
KMD1 182345Z 23007KT 21/08 A2972 RMK A01 T02120075  RH  041%=      5-min Rain = 0
KMD1 182346Z 23008KT 21/07 A2972 RMK A01 T02110074  RH  041%=      5-min Rain = 0
KMD1 182347Z 23010KT 21/07 A2972 RMK A01 T02100074  RH  041%=      5-min Rain = 0
KMD1 182348Z 23012KT 21/07 A2972 RMK A01 T02100072  RH  041%=      5-min Rain = 0
KMD1 182349Z 23008KT 21/07 A2972 RMK A01 T02110072  RH  040%=      5-min Rain = 0
KMD1 182350Z 23009KT 21/07 A2972 RMK A01 T02110073  RH  041%=      5-min Rain = 0
KMD1 182351Z 23009KT 21/07 A2972 RMK A01 T02110073  RH  041%=      5-min Rain = 0
KMD1 182352Z 23007KT 21/07 A2972 RMK A01 T02100073  RH  041%=      5-min Rain = 0
KMD1 182353Z 23008KT 21/07 A2972 RMK A01 T02090073  RH  041%=      5-min Rain = 0
KMD1 182354Z 24008KT 21/07 A2972 RMK A01 T02090073  RH  042%=      5-min Rain = 0
KMD1 182355Z 24007KT 21/07 A2972 RMK A01 T02070073  RH  042%=      5-min Rain = 0
KMD1 182356Z 24006KT 21/07 A2972 RMK A01 T02060074  RH  042%=      5-min Rain = 0
KMD1 182357Z 25007KT 21/07 A2973 RMK A01 T02050074  RH  043%=      5-min Rain = 0
KMD1 182358Z 25006KT 20/07 A2973 RMK A01 T02040074  RH  043%=      5-min Rain = 0
KMD1 182359Z 25007KT 20/07 A2973 RMK A01 T02030074  RH  043%=      5-min Rain = 0
KMD1 190000Z 25006KT 20/07 A2973 RMK A01 T02020073  RH  043%=      5-min Rain = 0
KMD1 190001Z 24005KT 20/07 A2973 RMK A01 T02020074  RH  043%=      5-min Rain = 0
KMD1 190002Z 25006KT 20/07 A2973 RMK A01 T02010074  RH  044%=      5-min Rain = 0
KMD1 190003Z 25007KT 20/07 A2973 RMK A01 T02010074  RH  044%=      5-min Rain = 0
KMD1 190004Z 26006KT 20/07 A2973 RMK A01 T02000073  RH  044%=      5-min Rain = 0
KMD1 190005Z 26006KT 20/07 A2973 RMK A01 T02000072  RH  043%=      5-min Rain = 0
KMD1 190006Z 26006KT 20/07 A2973 RMK A01 T02000072  RH  043%=      5-min Rain = 0
KMD1 190007Z 26005KT 20/07 A2973 RMK A01 T01990072  RH  044%=      5-min Rain = 0
KMD1 190008Z 26006KT 20/07 A2973 RMK A01 T01960071  RH  044%=      5-min Rain = 0
KMD1 190009Z 26005KT 20/07 A2974 RMK A01 T01960070  RH  044%=      5-min Rain = 0
KMD1 190010Z 26005KT 20/07 A2974 RMK A01 T01960070  RH  044%=      5-min Rain = 0
KMD1 190011Z 27005KT 20/07 A2974 RMK A01 T01960070  RH  044%=      5-min Rain = 0
KMD1 190012Z 26006KT 20/07 A2974 RMK A01 T01960070  RH  044%=      5-min Rain = 0
KMD1 190013Z 25006KT 20/07 A2974 RMK A01 T01960070  RH  044%=      5-min Rain = 0
KMD1 190014Z 25005KT 20/07 A2974 RMK A01 T01950070  RH  044%=      5-min Rain = 0
KMD1 190015Z 25005KT 20/07 A2974 RMK A01 T01950070  RH  044%=      5-min Rain = 0
KMD1 190016Z 25005KT 19/07 A2974 RMK A01 T01940069  RH  044%=      5-min Rain = 0
KMD1 190017Z 26006KT 19/07 A2974 RMK A01 T01940069  RH  044%=      5-min Rain = 0
KMD1 190018Z 26005KT 20/07 A2974 RMK A01 T01950069  RH  044%=      5-min Rain = 0
KMD1 190019Z 25006KT 19/07 A2973 RMK A01 T01940070  RH  044%=      5-min Rain = 0
KMD1 190020Z 25005KT 19/07 A2973 RMK A01 T01930069  RH  044%=      5-min Rain = 0
KMD1 190021Z 26005KT 19/07 A2973 RMK A01 T01930069  RH  044%=      5-min Rain = 0
KMD1 190022Z 25006KT 19/07 A2973 RMK A01 T01930068  RH  044%=      5-min Rain = 0
KMD1 190023Z 25005KT 19/07 A2973 RMK A01 T01930068  RH  044%=      5-min Rain = 0
KMD1 190024Z 25005KT 19/07 A2973 RMK A01 T01920069  RH  045%=      5-min Rain = 0
KMD1 190025Z 25005KT 19/07 A2973 RMK A01 T01910070  RH  045%=      5-min Rain = 0
KMD1 190026Z 25005KT 19/07 A2974 RMK A01 T01900070  RH  045%=      5-min Rain = 0
KMD1 190027Z 25006KT 19/07 A2973 RMK A01 T01890070  RH  046%=      5-min Rain = 0
KMD1 190028Z 25005KT 19/07 A2973 RMK A01 T01880068  RH  046%=      5-min Rain = 0
KMD1 190029Z 25005KT 19/07 A2973 RMK A01 T01880068  RH  045%=      5-min Rain = 0
KMD1 190030Z 25005KT 19/07 A2973 RMK A01 T01880069  RH  046%=      5-min Rain = 0
KMD1 190031Z 25005KT 19/07 A2973 RMK A01 T01880068  RH  046%=      5-min Rain = 0
KMD1 190032Z 25005KT 19/07 A2973 RMK A01 T01880068  RH  046%=      5-min Rain = 0
KMD1 190033Z 25005KT 19/07 A2973 RMK A01 T01870069  RH  046%=      5-min Rain = 0
KMD1 190034Z 25005KT 19/07 A2973 RMK A01 T01860069  RH  046%=      5-min Rain = 0
KMD1 190035Z 25005KT 19/07 A2974 RMK A01 T01860068  RH  046%=      5-min Rain = 0
KMD1 190036Z 25005KT 19/07 A2974 RMK A01 T01860068  RH  046%=      5-min Rain = 0
KMD1 190037Z 25005KT 19/07 A2974 RMK A01 T01860068  RH  046%=      5-min Rain = 0
KMD1 190038Z 25005KT 19/07 A2974 RMK A01 T01850068  RH  046%=      5-min Rain = 0
KMD1 190039Z 25005KT 19/07 A2974 RMK A01 T01850069  RH  047%=      5-min Rain = 0
KMD1 190040Z 26005KT 18/07 A2974 RMK A01 T01840068  RH  047%=      5-min Rain = 0
KMD1 190041Z 26005KT 18/07 A2974 RMK A01 T01840068  RH  047%=      5-min Rain = 0
KMD1 190042Z 25005KT 18/07 A2975 RMK A01 T01840067  RH  047%=      5-min Rain = 0
KMD1 190043Z 25005KT 18/07 A2975 RMK A01 T01830067  RH  047%=      5-min Rain = 0
KMD1 190044Z 25005KT 18/07 A2975 RMK A01 T01820067  RH  047%=      5-min Rain = 0
KMD1 190045Z 25005KT 18/07 A2975 RMK A01 T01810067  RH  047%=      5-min Rain = 0
KMD1 190046Z 25004KT 18/07 A2975 RMK A01 T01800067  RH  048%=      5-min Rain = 0
KMD1 190047Z 25004KT 18/07 A2975 RMK A01 T01790067  RH  048%=      5-min Rain = 0
KMD1 190048Z 25004KT 18/07 A2975 RMK A01 T01780066  RH  048%=      5-min Rain = 0
KMD1 190049Z 25004KT 18/07 A2975 RMK A01 T01780067  RH  048%=      5-min Rain = 0
KMD1 190050Z 25004KT 18/07 A2975 RMK A01 T01770066  RH  048%=      5-min Rain = 0
KMD1 190051Z 25004KT 18/07 A2975 RMK A01 T01760066  RH  048%=      5-min Rain = 0
KMD1 190052Z 25004KT 18/07 A2975 RMK A01 T01770066  RH  048%=      5-min Rain = 0
KMD1 190053Z 25004KT 18/07 A2975 RMK A01 T01770066  RH  048%=      5-min Rain = 0
KMD1 190054Z 25003KT 18/07 A2975 RMK A01 T01760066  RH  048%=      5-min Rain = 0
KMD1 190055Z 25004KT 18/07 A2975 RMK A01 T01760066  RH  048%=      5-min Rain = 0
KMD1 190056Z 25004KT 18/07 A2975 RMK A01 T01760066  RH  048%=      5-min Rain = 0
KMD1 190057Z 25004KT 18/07 A2975 RMK A01 T01750066  RH  049%=      5-min Rain = 0
KMD1 190058Z 25003KT 17/07 A2975 RMK A01 T01740066  RH  049%=      5-min Rain = 0
KMD1 190059Z 25003KT 17/07 A2975 RMK A01 T01730066  RH  049%=      5-min Rain = 0
KMD1 190100Z 25003KT 17/07 A2975 RMK A01 T01720067  RH  050%=      5-min Rain = 0
KMD1 190101Z 25003KT 17/07 A2975 RMK A01 T01710067  RH  050%=      5-min Rain = 0
KMD1 190102Z 25004KT 17/07 A2975 RMK A01 T01700066  RH  051%=      5-min Rain = 0
KMD1 190103Z 26004KT 17/07 A2975 RMK A01 T01690067  RH  051%=      5-min Rain = 0
KMD1 190104Z 26004KT 17/07 A2975 RMK A01 T01690067  RH  051%=      5-min Rain = 0
KMD1 190105Z 25004KT 17/07 A2975 RMK A01 T01680067  RH  051%=      5-min Rain = 0
KMD1 190106Z 26004KT 17/07 A2975 RMK A01 T01670067  RH  051%=      5-min Rain = 0
KMD1 190107Z 26003KT 17/07 A2975 RMK A01 T01670067  RH  051%=      5-min Rain = 0
KMD1 190108Z 26004KT 17/07 A2975 RMK A01 T01660067  RH  052%=      5-min Rain = 0
KMD1 190109Z 26003KT 16/07 A2975 RMK A01 T01640067  RH  053%=      5-min Rain = 0
KMD1 190110Z 26004KT 16/07 A2975 RMK A01 T01630066  RH  053%=      5-min Rain = 0
KMD1 190111Z 25004KT 16/07 A2976 RMK A01 T01630066  RH  053%=      5-min Rain = 0
KMD1 190112Z 26003KT 16/07 A2976 RMK A01 T01630067  RH  053%=      5-min Rain = 0
KMD1 190113Z 27004KT 16/07 A2976 RMK A01 T01630067  RH  053%=      5-min Rain = 0
KMD1 190114Z 27004KT 16/07 A2976 RMK A01 T01620068  RH  053%=      5-min Rain = 0
KMD1 190115Z 27004KT 16/07 A2976 RMK A01 T01610069  RH  054%=      5-min Rain = 0
KMD1 190116Z 27004KT 16/07 A2976 RMK A01 T01590070  RH  055%=      5-min Rain = 0
KMD1 190117Z 27004KT 16/07 A2976 RMK A01 T01580070  RH  056%=      5-min Rain = 0
KMD1 190118Z 26004KT 16/07 A2976 RMK A01 T01570070  RH  056%=      5-min Rain = 0
KMD1 190119Z 26004KT 16/07 A2976 RMK A01 T01560069  RH  056%=      5-min Rain = 0
KMD1 190120Z 26004KT 16/07 A2976 RMK A01 T01570066  RH  055%=      5-min Rain = 0
KMD1 190121Z 25004KT 16/07 A2976 RMK A01 T01600065  RH  053%=      5-min Rain = 0
KMD1 190122Z 25003KT 16/07 A2976 RMK A01 T01620066  RH  053%=      5-min Rain = 0
KMD1 190123Z 25003KT 16/07 A2976 RMK A01 T01630067  RH  053%=      5-min Rain = 0
KMD1 190124Z 26003KT 16/07 A2976 RMK A01 T01640067  RH  053%=      5-min Rain = 0
KMD1 190125Z 26003KT 16/07 A2976 RMK A01 T01630066  RH  052%=      5-min Rain = 0
KMD1 190126Z 27003KT 16/07 A2976 RMK A01 T01630065  RH  052%=      5-min Rain = 0
KMD1 190127Z 28003KT 16/07 A2976 RMK A01 T01640066  RH  052%=      5-min Rain = 0
KMD1 190128Z 30005KT 16/07 A2977 RMK A01 T01640068  RH  053%=      5-min Rain = 0
KMD1 190129Z 32008KT 16/07 A2977 RMK A01 T01620070  RH  054%=      5-min Rain = 0
KMD1 190130Z 33009KT 16/07 A2977 RMK A01 T01590072  RH  056%=      5-min Rain = 0
KMD1 190131Z 32008KT 16/07 A2977 RMK A01 T01580071  RH  056%=      5-min Rain = 0
KMD1 190132Z 32007KT 16/07 A2977 RMK A01 T01600070  RH  055%=      5-min Rain = 0
KMD1 190133Z 30005KT 16/07 A2977 RMK A01 T01640071  RH  054%=      5-min Rain = 0
KMD1 190134Z 26005KT 17/07 A2977 RMK A01 T01670071  RH  053%=      5-min Rain = 0
KMD1 190135Z 24005G10KT 17/07 A2977 RMK A01 T01700072  RH  052%=      5-min Rain = 0
KMD1 190136Z 25006KT 17/07 A2977 RMK A01 T01730073  RH  052%=      5-min Rain = 0
KMD1 190137Z 26006KT 18/07 A2977 RMK A01 T01760073  RH  051%=      5-min Rain = 0
KMD1 190138Z 28007KT 18/07 A2977 RMK A01 T01780074  RH  050%=      5-min Rain = 0
KMD1 190139Z 29008KT 18/08 A2977 RMK A01 T01780077  RH  052%=      5-min Rain = 0
KMD1 190140Z 29008KT 18/08 A2977 RMK A01 T01760079  RH  053%=      5-min Rain = 0
KMD1 190141Z 29007KT 17/08 A2977 RMK A01 T01740079  RH  053%=      5-min Rain = 0
KMD1 190142Z 28005KT 17/08 A2977 RMK A01 T01730078  RH  054%=      5-min Rain = 0
KMD1 190143Z 28005KT 17/08 A2977 RMK A01 T01730078  RH  054%=      5-min Rain = 0
KMD1 190144Z 27004KT 17/08 A2977 RMK A01 T01720076  RH  053%=      5-min Rain = 0
KMD1 190145Z 26004KT 17/08 A2977 RMK A01 T01730075  RH  052%=      5-min Rain = 0
KMD1 190146Z 26004KT 17/08 A2977 RMK A01 T01740075  RH  052%=      5-min Rain = 0
KMD1 190147Z 25004KT 18/08 A2977 RMK A01 T01750075  RH  052%=      5-min Rain = 0
KMD1 190148Z 25005KT 18/08 A2977 RMK A01 T01750075  RH  052%=      5-min Rain = 0
KMD1 190149Z 24005KT 18/08 A2977 RMK A01 T01760076  RH  052%=      5-min Rain = 0
KMD1 190150Z 24005KT 18/08 A2978 RMK A01 T01760077  RH  052%=      5-min Rain = 0
KMD1 190151Z 24005KT 18/08 A2978 RMK A01 T01750076  RH  052%=      5-min Rain = 0
KMD1 190152Z 24005KT 18/08 A2978 RMK A01 T01750077  RH  053%=      5-min Rain = 0
KMD1 190153Z 24005KT 17/08 A2978 RMK A01 T01740078  RH  053%=      5-min Rain = 0
KMD1 190154Z 24005KT 17/08 A2978 RMK A01 T01720077  RH  053%=      5-min Rain = 0
KMD1 190155Z 24005KT 17/08 A2978 RMK A01 T01720077  RH  053%=      5-min Rain = 0
KMD1 190156Z 25005KT 17/08 A2978 RMK A01 T01710077  RH  054%=      5-min Rain = 0
KMD1 190157Z 25005KT 17/08 A2978 RMK A01 T01710077  RH  054%=      5-min Rain = 0
KMD1 190158Z 26005KT 17/08 A2978 RMK A01 T01710077  RH  054%=      5-min Rain = 0
KMD1 190159Z 26005KT 17/08 A2978 RMK A01 T01710077  RH  054%=      5-min Rain = 0
KMD1 190200Z 26005KT 17/08 A2978 RMK A01 T01710076  RH  054%=      5-min Rain = 0
KMD1 190201Z 26004KT 17/08 A2978 RMK A01 T01700076  RH  054%=      5-min Rain = 0
KMD1 190202Z 26004KT 17/08 A2978 RMK A01 T01700076  RH  054%=      5-min Rain = 0
KMD1 190203Z 26004KT 17/08 A2978 RMK A01 T01700076  RH  054%=      5-min Rain = 0
KMD1 190204Z 26004KT 17/08 A2978 RMK A01 T01700077  RH  054%=      5-min Rain = 0
KMD1 190205Z 25004KT 17/08 A2978 RMK A01 T01690077  RH  055%=      5-min Rain = 0
KMD1 190206Z 25005KT 17/08 A2978 RMK A01 T01680077  RH  055%=      5-min Rain = 0
KMD1 190207Z 25004KT 17/08 A2979 RMK A01 T01680077  RH  055%=      5-min Rain = 0
KMD1 190208Z 25005KT 17/08 A2979 RMK A01 T01680077  RH  055%=      5-min Rain = 0
KMD1 190209Z 25004KT 17/08 A2979 RMK A01 T01680077  RH  055%=      5-min Rain = 0
KMD1 190210Z 24004KT 17/08 A2979 RMK A01 T01680077  RH  055%=      5-min Rain = 0
KMD1 190211Z 25004KT 17/08 A2979 RMK A01 T01670077  RH  055%=      5-min Rain = 0
KMD1 190212Z 25004KT 17/08 A2979 RMK A01 T01670077  RH  055%=      5-min Rain = 0
KMD1 190213Z 24004KT 17/08 A2978 RMK A01 T01670077  RH  055%=      5-min Rain = 0
KMD1 190214Z 25004KT 17/08 A2979 RMK A01 T01670077  RH  055%=      5-min Rain = 0
KMD1 190215Z 25004KT 17/08 A2979 RMK A01 T01660077  RH  055%=      5-min Rain = 0
KMD1 190216Z 25005KT 17/08 A2979 RMK A01 T01660077  RH  055%=      5-min Rain = 0
KMD1 190217Z 25005KT 17/08 A2979 RMK A01 T01660077  RH  056%=      5-min Rain = 0
KMD1 190218Z 25005KT 17/08 A2979 RMK A01 T01660077  RH  056%=      5-min Rain = 0
KMD1 190219Z 26005KT 17/08 A2979 RMK A01 T01660077  RH  056%=      5-min Rain = 0
KMD1 190220Z 27006KT 17/08 A2979 RMK A01 T01650077  RH  056%=      5-min Rain = 0
KMD1 190221Z 27006KT 17/08 A2979 RMK A01 T01650077  RH  056%=      5-min Rain = 0
KMD1 190222Z 25006KT 17/08 A298 RMK A01 T01650076  RH  056%=      5-min Rain = 0
KMD1 190223Z 25006KT 17/08 A298 RMK A01 T01650076  RH  056%=      5-min Rain = 0
KMD1 190224Z 26005KT 17/08 A298 RMK A01 T01660076  RH  055%=      5-min Rain = 0
KMD1 190225Z 27005KT 17/08 A298 RMK A01 T01660077  RH  056%=      5-min Rain = 0
KMD1 190226Z 27005KT 17/08 A298 RMK A01 T01650080  RH  057%=      5-min Rain = 0
KMD1 190227Z 26006KT 16/08 A298 RMK A01 T01630080  RH  058%=      5-min Rain = 0
KMD1 190228Z 26006KT 16/08 A298 RMK A01 T01610078  RH  058%=      5-min Rain = 0
KMD1 190229Z 26006KT 16/08 A298 RMK A01 T01620077  RH  057%=      5-min Rain = 0
KMD1 190230Z 26006KT 16/08 A298 RMK A01 T01640077  RH  056%=      5-min Rain = 0
KMD1 190231Z 25005KT 17/08 A298 RMK A01 T01650078  RH  056%=      5-min Rain = 0
KMD1 190232Z 25005KT 17/08 A298 RMK A01 T01650078  RH  056%=      5-min Rain = 0
KMD1 190233Z 26005KT 17/08 A298 RMK A01 T01650077  RH  056%=      5-min Rain = 0
KMD1 190234Z 26005KT 17/08 A298 RMK A01 T01650079  RH  057%=      5-min Rain = 0
KMD1 190235Z 26005KT 17/08 A298 RMK A01 T01650079  RH  057%=      5-min Rain = 0
KMD1 190236Z 26006KT 16/08 A298 RMK A01 T01640079  RH  057%=      5-min Rain = 0
KMD1 190237Z 26006KT 16/08 A2981 RMK A01 T01640079  RH  057%=      5-min Rain = 0
KMD1 190238Z 26006KT 16/08 A2981 RMK A01 T01640079  RH  057%=      5-min Rain = 0
KMD1 190239Z 27005KT 16/08 A2981 RMK A01 T01630079  RH  057%=      5-min Rain = 0
KMD1 190240Z 27005KT 16/08 A2981 RMK A01 T01630079  RH  058%=      5-min Rain = 0
KMD1 190241Z 27005KT 16/08 A2981 RMK A01 T01620081  RH  059%=      5-min Rain = 0
KMD1 190242Z 27005KT 16/08 A2981 RMK A01 T01610080  RH  059%=      5-min Rain = 0
KMD1 190243Z 26004KT 16/08 A2981 RMK A01 T01600081  RH  059%=      5-min Rain = 0
KMD1 190244Z 27004KT 16/08 A2981 RMK A01 T01590081  RH  060%=      5-min Rain = 0
KMD1 190245Z 27005KT 16/08 A2982 RMK A01 T01590081  RH  060%=      5-min Rain = 0
KMD1 190246Z 27005KT 16/08 A2982 RMK A01 T01590081  RH  060%=      5-min Rain = 0
KMD1 190247Z 27006KT 16/08 A2982 RMK A01 T01590081  RH  060%=      5-min Rain = 0
KMD1 190248Z 27006KT 16/08 A2982 RMK A01 T01580082  RH  060%=      5-min Rain = 0
KMD1 190249Z 27006KT 16/08 A2982 RMK A01 T01580082  RH  061%=      5-min Rain = 0
KMD1 190250Z 27006KT 16/08 A2982 RMK A01 T01580082  RH  061%=      5-min Rain = 0
KMD1 190251Z 27007KT 16/08 A2983 RMK A01 T01590082  RH  060%=      5-min Rain = 0
KMD1 190252Z 27007KT 16/08 A2983 RMK A01 T01590082  RH  060%=      5-min Rain = 0
KMD1 190253Z 27006KT 16/08 A2983 RMK A01 T01600082  RH  060%=      5-min Rain = 0
KMD1 190254Z 28006KT 16/08 A2983 RMK A01 T01600081  RH  059%=      5-min Rain = 0
KMD1 190255Z 28006KT 16/08 A2983 RMK A01 T01610082  RH  059%=      5-min Rain = 0
KMD1 190256Z 28006KT 16/08 A2983 RMK A01 T01610083  RH  060%=      5-min Rain = 0
KMD1 190257Z 29006KT 16/08 A2983 RMK A01 T01610084  RH  060%=      5-min Rain = 0
KMD1 190258Z 30006KT 16/08 A2983 RMK A01 T01600084  RH  060%=      5-min Rain = 0
KMD1 190259Z 29006KT 16/08 A2984 RMK A01 T01600082  RH  060%=      5-min Rain = 0
KMD1 190300Z 29007KT 16/08 A2984 RMK A01 T01610082  RH  059%=      5-min Rain = 0
KMD1 190301Z 28008G17KT 16/08 A2984 RMK A01 T01630081  RH  058%=      5-min Rain = 0
KMD1 190302Z 30012G17KT 17/07 A2984 RMK A01 T01650073  RH  054%=      5-min Rain = 0
KMD1 190303Z 30014KT 17/06 A2984 RMK A01 T01720059  RH  048%=      5-min Rain = 0
KMD1 190304Z 29021G27KT 18/05 A2984 RMK A01 T01800051  RH  043%=      5-min Rain = 0
KMD1 190305Z 30017G22KT 19/05 A2984 RMK A01 T01850048  RH  040%=      5-min Rain = 0
KMD1 190306Z 30015G21KT 19/05 A2985 RMK A01 T01870050  RH  040%=      5-min Rain = 0
KMD1 190307Z 30014KT 19/05 A2985 RMK A01 T01870048  RH  040%=      5-min Rain = 0
KMD1 190308Z 30017KT 19/05 A2985 RMK A01 T01880047  RH  040%=      5-min Rain = 0
KMD1 190309Z 30017KT 19/05 A2984 RMK A01 T01890045  RH  039%=      5-min Rain = 0
KMD1 190310Z 30017KT 19/05 A2985 RMK A01 T01890046  RH  039%=      5-min Rain = 0
KMD1 190311Z 31018KT 19/05 A2985 RMK A01 T01890046  RH  039%=      5-min Rain = 0
KMD1 190312Z 31016KT 19/04 A2985 RMK A01 T01890044  RH  038%=      5-min Rain = 0
KMD1 190313Z 31016KT 19/05 A2986 RMK A01 T01890046  RH  039%=      5-min Rain = 0
KMD1 190314Z 31021KT 19/04 A2986 RMK A01 T01870043  RH  038%=      5-min Rain = 0
KMD1 190315Z 31018KT 19/04 A2986 RMK A01 T01870042  RH  038%=      5-min Rain = 0
KMD1 190316Z 31016KT 19/04 A2986 RMK A01 T01870042  RH  038%=      5-min Rain = 0
KMD1 190317Z 31015KT 19/04 A2986 RMK A01 T01860042  RH  038%=      5-min Rain = 0
KMD1 190318Z 30018KT 19/04 A2986 RMK A01 T01850040  RH  038%=      5-min Rain = 0
KMD1 190319Z 30020G27KT 19/04 A2986 RMK A01 T01850036  RH  037%=      5-min Rain = 0
KMD1 190320Z 30022G27KT 18/03 A2986 RMK A01 T01840033  RH  037%=      5-min Rain = 0
KMD1 190321Z 30020G26KT 18/03 A2987 RMK A01 T01830031  RH  036%=      5-min Rain = 0
KMD1 190322Z 30024KT 18/03 A2987 RMK A01 T01820029  RH  036%=      5-min Rain = 0
KMD1 190323Z 30017KT 18/03 A2987 RMK A01 T01810030  RH  036%=      5-min Rain = 0
KMD1 190324Z 31018G23KT 18/03 A2987 RMK A01 T01800030  RH  037%=      5-min Rain = 0
KMD1 190325Z 30016KT 18/03 A2987 RMK A01 T01790030  RH  037%=      5-min Rain = 0
KMD1 190326Z 30018KT 18/03 A2987 RMK A01 T01780027  RH  036%=      5-min Rain = 0
KMD1 190327Z 30017KT 18/02 A2987 RMK A01 T01780023  RH  035%=      5-min Rain = 0
KMD1 190328Z 30013KT 18/03 A2987 RMK A01 T01780026  RH  036%=      5-min Rain = 0
KMD1 190329Z 31016KT 18/03 A2987 RMK A01 T01770026  RH  036%=      5-min Rain = 0
KMD1 190330Z 31013KT 18/02 A2987 RMK A01 T01770021  RH  035%=      5-min Rain = 0
KMD1 190331Z 31013KT 18/02 A2987 RMK A01 T01780021  RH  035%=      5-min Rain = 0
KMD1 190332Z 31011KT 18/02 A2987 RMK A01 T01780023  RH  036%=      5-min Rain = 0
KMD1 190333Z 31013KT 18/02 A2987 RMK A01 T01770022  RH  035%=      5-min Rain = 0
KMD1 190334Z 31016KT 18/02 A2987 RMK A01 T01770017  RH  034%=      5-min Rain = 0
KMD1 190335Z 31014G19KT 18/02 A2987 RMK A01 T01780018  RH  034%=      5-min Rain = 0
KMD1 190336Z 31016G23KT 18/02 A2987 RMK A01 T01780017  RH  034%=      5-min Rain = 0
KMD1 190337Z 31017KT 18/01 A2987 RMK A01 T01770013  RH  033%=      5-min Rain = 0
KMD1 190338Z 31015G20KT 18/01 A2987 RMK A01 T01780012  RH  033%=      5-min Rain = 0
KMD1 190339Z 32010G15KT 18/01 A2987 RMK A01 T01780014  RH  033%=      5-min Rain = 0
KMD1 190340Z 33016KT 18/01 A2987 RMK A01 T01780013  RH  033%=      5-min Rain = 0
KMD1 190341Z 32014KT 18/01 A2988 RMK A01 T01780012  RH  033%=      5-min Rain = 0
KMD1 190342Z 31018G26KT 18/01 A2988 RMK A01 T01780010  RH  032%=      5-min Rain = 0
KMD1 190343Z 32012KT 18/01 A2988 RMK A01 T01780011  RH  032%=      5-min Rain = 0
KMD1 190344Z 31016G21KT 18/01 A2988 RMK A01 T01780012  RH  033%=      5-min Rain = 0
KMD1 190345Z 31014KT 18/01 A2988 RMK A01 T01770012  RH  033%=      5-min Rain = 0
KMD1 190346Z 32014G21KT 18/01 A2988 RMK A01 T01760010  RH  033%=      5-min Rain = 0
KMD1 190347Z 31018G24KT 18/01 A2988 RMK A01 T01760006  RH  032%=      5-min Rain = 0
KMD1 190348Z 31015KT 18/01 A2988 RMK A01 T01760006  RH  032%=      5-min Rain = 0
KMD1 190349Z 31014KT 18/00 A2988 RMK A01 T01760004  RH  031%=      5-min Rain = 0
KMD1 190350Z 31017KT 18/01 A2989 RMK A01 T01760006  RH  032%=      5-min Rain = 0
KMD1 190351Z 31013KT 18/01 A2989 RMK A01 T01760006  RH  032%=      5-min Rain = 0
KMD1 190352Z 31018G23KT 18/00 A2989 RMK A01 T01750003  RH  031%=      5-min Rain = 0
KMD1 190353Z 31019KT 18/00 A2989 RMK A01 T01760000  RH  030%=      5-min Rain = 0
KMD1 190354Z 31017G22KT 18/00 A2989 RMK A01 T01770000  RH  030%=      5-min Rain = 0
KMD1 190355Z 31016KT 18/00 A2989 RMK A01 T01760002  RH  031%=      5-min Rain = 0
KMD1 190356Z 32016KT 18/00 A2989 RMK A01 T01760000  RH  030%=      5-min Rain = 0
KMD1 190357Z 31015G21KT 18/M00 A2989 RMK A01 T01761001  RH  030%=      5-min Rain = 0
KMD1 190358Z 30012KT 18/00 A299 RMK A01 T01760004  RH  031%=      5-min Rain = 0
KMD1 190359Z 30015KT 17/00 A299 RMK A01 T01740003  RH  031%=      5-min Rain = 0
KMD1 190400Z 30016KT 17/M00 A299 RMK A01 T01741001  RH  031%=      5-min Rain = 0
KMD1 190401Z 30015KT 17/M00 A299 RMK A01 T01741001  RH  030%=      5-min Rain = 0
KMD1 190402Z 30012KT 18/00 A299 RMK A01 T01750002  RH  031%=      5-min Rain = 0
KMD1 190403Z 29011KT 17/00 A299 RMK A01 T01740003  RH  031%=      5-min Rain = 0
KMD1 190404Z 29012KT 17/00 A299 RMK A01 T01730003  RH  032%=      5-min Rain = 0
KMD1 190405Z 29013KT 17/M00 A299 RMK A01 T01731001  RH  031%=      5-min Rain = 0
KMD1 190406Z 29012KT 17/00 A2991 RMK A01 T01740000  RH  031%=      5-min Rain = 0
KMD1 190407Z 29010KT 17/00 A2991 RMK A01 T01730002  RH  031%=      5-min Rain = 0
KMD1 190408Z 30010KT 17/01 A2991 RMK A01 T01720008  RH  033%=      5-min Rain = 0
KMD1 190409Z 30011KT 17/00 A299 RMK A01 T01700003  RH  032%=      5-min Rain = 0
KMD1 190410Z 30010KT 17/00 A299 RMK A01 T01700003  RH  032%=      5-min Rain = 0
KMD1 190411Z 30008KT 17/01 A299 RMK A01 T01700010  RH  034%=      5-min Rain = 0
KMD1 190412Z 29008KT 17/01 A299 RMK A01 T01690007  RH  033%=      5-min Rain = 0
KMD1 190413Z 29011KT 17/01 A299 RMK A01 T01680005  RH  033%=      5-min Rain = 0
KMD1 190414Z 30012KT 17/00 A299 RMK A01 T01680003  RH  033%=      5-min Rain = 0
KMD1 190415Z 29014KT 17/M00 A299 RMK A01 T01681001  RH  032%=      5-min Rain = 0
KMD1 190416Z 29012KT 17/M00 A299 RMK A01 T01691001  RH  032%=      5-min Rain = 0
KMD1 190417Z 29011KT 17/M01 A299 RMK A01 T01701005  RH  030%=      5-min Rain = 0
KMD1 190418Z 29010G16KT 17/M00 A299 RMK A01 T01711001  RH  031%=      5-min Rain = 0
KMD1 190419Z 30015G20KT 17/M00 A299 RMK A01 T01701004  RH  031%=      5-min Rain = 0
KMD1 190420Z 30010KT 17/M01 A299 RMK A01 T01701006  RH  030%=      5-min Rain = 0
KMD1 190421Z 30013KT 17/M00 A299 RMK A01 T01711004  RH  030%=      5-min Rain = 0
KMD1 190422Z 29009KT 17/M00 A299 RMK A01 T01701003  RH  031%=      5-min Rain = 0
KMD1 190423Z 29009KT 17/M00 A299 RMK A01 T01691001  RH  032%=      5-min Rain = 0
KMD1 190424Z 28009KT 17/M00 A299 RMK A01 T01681002  RH  031%=      5-min Rain = 0
KMD1 190425Z 29009KT 17/M00 A299 RMK A01 T01681002  RH  032%=      5-min Rain = 0
KMD1 190426Z 28008KT 17/M00 A2989 RMK A01 T01681004  RH  031%=      5-min Rain = 0
KMD1 190427Z 28007KT 17/M00 A299 RMK A01 T01671001  RH  032%=      5-min Rain = 0
KMD1 190428Z 28012KT 17/00 A2989 RMK A01 T016600-0  RH  032%=      5-min Rain = 0
KMD1 190429Z 29013KT 17/M01 A2989 RMK A01 T01671008  RH  030%=      5-min Rain = 0
KMD1 190430Z 29011KT 17/M01 A299 RMK A01 T01681005  RH  031%=      5-min Rain = 0
KMD1 190431Z 28012KT 17/M01 A299 RMK A01 T01681006  RH  031%=      5-min Rain = 0
KMD1 190432Z 29010KT 17/M01 A299 RMK A01 T01681006  RH  031%=      5-min Rain = 0
KMD1 190433Z 29010KT 17/M00 A299 RMK A01 T01671004  RH  031%=      5-min Rain = 0
KMD1 190434Z 29010KT 17/M01 A299 RMK A01 T01671005  RH  031%=      5-min Rain = 0
KMD1 190435Z 29010KT 17/M01 A299 RMK A01 T01671006  RH  031%=      5-min Rain = 0
KMD1 190436Z 28008KT 17/M01 A299 RMK A01 T01671005  RH  031%=      5-min Rain = 0
KMD1 190437Z 28009KT 17/M00 A299 RMK A01 T01661001  RH  032%=      5-min Rain = 0
KMD1 190438Z 29011KT 17/M01 A299 RMK A01 T01651005  RH  031%=      5-min Rain = 0
KMD1 190439Z 28011KT 17/M01 A299 RMK A01 T01661008  RH  031%=      5-min Rain = 0
KMD1 190440Z 29009KT 17/M01 A299 RMK A01 T01661005  RH  031%=      5-min Rain = 0
KMD1 190441Z 28009KT 17/M01 A299 RMK A01 T01661005  RH  031%=      5-min Rain = 0
KMD1 190442Z 28009KT 17/M00 A299 RMK A01 T01651004  RH  032%=      5-min Rain = 0
KMD1 190443Z 28011G16KT 17/M01 A299 RMK A01 T01651008  RH  031%=      5-min Rain = 0
KMD1 190444Z 28010KT 17/M01 A2989 RMK A01 T01661014  RH  029%=      5-min Rain = 0
KMD1 190445Z 28010KT 17/M01 A2989 RMK A01 T01681009  RH  030%=      5-min Rain = 0
KMD1 190446Z 28012KT 17/M01 A2989 RMK A01 T01671011  RH  030%=      5-min Rain = 0
KMD1 190447Z 29015KT 17/M01 A2989 RMK A01 T01671013  RH  029%=      5-min Rain = 0
KMD1 190448Z 28012KT 17/M01 A2989 RMK A01 T01681013  RH  029%=      5-min Rain = 0
KMD1 190449Z 29009KT 17/M01 A2989 RMK A01 T01681014  RH  029%=      5-min Rain = 0
KMD1 190450Z 27008KT 17/M01 A2989 RMK A01 T01681010  RH  030%=      5-min Rain = 0
KMD1 190451Z 28011KT 17/M01 A2989 RMK A01 T01671009  RH  030%=      5-min Rain = 0
KMD1 190452Z 28010KT 17/M01 A2989 RMK A01 T01661012  RH  030%=      5-min Rain = 0
KMD1 190453Z 29010KT 17/M01 A299 RMK A01 T01661008  RH  031%=      5-min Rain = 0
KMD1 190454Z 29009KT 17/M01 A299 RMK A01 T01651012  RH  030%=      5-min Rain = 0
KMD1 190455Z 29007KT 17/M01 A299 RMK A01 T01651010  RH  030%=      5-min Rain = 0
KMD1 190456Z 28007KT 17/M01 A299 RMK A01 T01651006  RH  031%=      5-min Rain = 0
KMD1 190457Z 28007KT 16/M00 A299 RMK A01 T01631002  RH  033%=      5-min Rain = 0
KMD1 190458Z 28007KT 16/M00 A299 RMK A01 T01611004  RH  032%=      5-min Rain = 0
KMD1 190459Z 27008KT 16/M01 A2989 RMK A01 T01611011  RH  031%=      5-min Rain = 0
KMD1 190500Z 28009KT 16/M01 A2989 RMK A01 T01621010  RH  031%=      5-min Rain = 0
KMD1 190501Z 28010KT 16/M01 A2989 RMK A01 T01631012  RH  030%=      5-min Rain = 0
KMD1 190502Z 29010KT 16/M01 A2989 RMK A01 T01631014  RH  030%=      5-min Rain = 0
KMD1 190503Z 30016KT 16/M02 A2989 RMK A01 T01641015  RH  029%=      5-min Rain = 0
KMD1 190504Z 30011G16KT 17/M02 A2989 RMK A01 T01651018  RH  029%=      5-min Rain = 0
KMD1 190505Z 28010KT 17/M01 A2989 RMK A01 T01651014  RH  029%=      5-min Rain = 0
KMD1 190506Z 29012KT 17/M01 A299 RMK A01 T01651014  RH  029%=      5-min Rain = 0
KMD1 190507Z 29011KT 16/M02 A2989 RMK A01 T01641018  RH  029%=      5-min Rain = 0
KMD1 190508Z 28009KT 16/M01 A299 RMK A01 T01641012  RH  030%=      5-min Rain = 0
KMD1 190509Z 28008KT 16/M01 A299 RMK A01 T01631011  RH  031%=      5-min Rain = 0
KMD1 190510Z 29009KT 16/M01 A299 RMK A01 T01611010  RH  031%=      5-min Rain = 0
KMD1 190511Z 29010KT 16/M01 A299 RMK A01 T01611014  RH  030%=      5-min Rain = 0
KMD1 190512Z 29010KT 16/M01 A299 RMK A01 T01611012  RH  031%=      5-min Rain = 0
KMD1 190513Z 29010KT 16/M02 A299 RMK A01 T01611015  RH  030%=      5-min Rain = 0
KMD1 190514Z 29010KT 16/M02 A299 RMK A01 T01611018  RH  029%=      5-min Rain = 0
KMD1 190515Z 29010KT 16/M02 A299 RMK A01 T01621017  RH  029%=      5-min Rain = 0
KMD1 190516Z 28009KT 16/M02 A299 RMK A01 T01621016  RH  030%=      5-min Rain = 0
KMD1 190517Z 28009KT 16/M02 A299 RMK A01 T01621016  RH  030%=      5-min Rain = 0
KMD1 190518Z 28011KT 16/M02 A299 RMK A01 T01621015  RH  030%=      5-min Rain = 0
KMD1 190519Z 29009KT 16/M02 A299 RMK A01 T01621017  RH  029%=      5-min Rain = 0
KMD1 190520Z 27013KT 16/M02 A299 RMK A01 T01621016  RH  030%=      5-min Rain = 0
KMD1 190521Z 29011KT 16/M02 A299 RMK A01 T01621018  RH  029%=      5-min Rain = 0
KMD1 190522Z 29011KT 16/M02 A299 RMK A01 T01621016  RH  030%=      5-min Rain = 0
KMD1 190523Z 29012KT 16/M02 A299 RMK A01 T01611018  RH  029%=      5-min Rain = 0
KMD1 190524Z 31015KT 16/M02 A299 RMK A01 T01611021  RH  029%=      5-min Rain = 0
KMD1 190525Z 29013KT 16/M02 A299 RMK A01 T01621021  RH  028%=      5-min Rain = 0
KMD1 190526Z 29015KT 16/M02 A299 RMK A01 T01621018  RH  029%=      5-min Rain = 0
KMD1 190527Z 29015KT 16/M03 A299 RMK A01 T01621025  RH  028%=      5-min Rain = 0
KMD1 190528Z 30016KT 16/M02 A299 RMK A01 T01631023  RH  028%=      5-min Rain = 0
KMD1 190529Z 29016G22KT 16/M03 A2989 RMK A01 T01631025  RH  028%=      5-min Rain = 0
KMD1 190530Z 30016G22KT 16/M03 A2989 RMK A01 T01631026  RH  027%=      5-min Rain = 0
KMD1 190531Z 30017KT 16/M02 A299 RMK A01 T01631024  RH  028%=      5-min Rain = 0
KMD1 190532Z 29016KT 16/M02 A299 RMK A01 T01621021  RH  028%=      5-min Rain = 0
KMD1 190533Z 28016G21KT 16/M03 A299 RMK A01 T01621026  RH  028%=      5-min Rain = 0
KMD1 190534Z 31015KT 16/M03 A299 RMK A01 T01621026  RH  027%=      5-min Rain = 0
KMD1 190535Z 30015G21KT 16/M03 A299 RMK A01 T01631025  RH  028%=      5-min Rain = 0
KMD1 190536Z 30015KT 16/M02 A299 RMK A01 T01621023  RH  028%=      5-min Rain = 0
KMD1 190537Z 29016KT 16/M02 A299 RMK A01 T01611024  RH  028%=      5-min Rain = 0
KMD1 190538Z 29019G24KT 16/M03 A299 RMK A01 T01611027  RH  027%=      5-min Rain = 0
KMD1 190539Z 29013KT 16/M03 A299 RMK A01 T01621025  RH  028%=      5-min Rain = 0
KMD1 190540Z 29014KT 16/M02 A299 RMK A01 T01611023  RH  028%=      5-min Rain = 0
KMD1 190541Z 30014KT 16/M02 A299 RMK A01 T01601022  RH  029%=      5-min Rain = 0
KMD1 190542Z 29019G26KT 16/M02 A299 RMK A01 T01601024  RH  028%=      5-min Rain = 0
KMD1 190543Z 30017KT 16/M03 A299 RMK A01 T01601027  RH  027%=      5-min Rain = 0
KMD1 190544Z 31016G22KT 16/M03 A299 RMK A01 T01611027  RH  027%=      5-min Rain = 0
KMD1 190545Z 30013KT 16/M02 A299 RMK A01 T01611024  RH  028%=      5-min Rain = 0
KMD1 190546Z 29012KT 16/M02 A299 RMK A01 T01601023  RH  028%=      5-min Rain = 0
KMD1 190547Z 28014KT 16/M02 A299 RMK A01 T01591024  RH  028%=      5-min Rain = 0
KMD1 190548Z 29011KT 16/M02 A299 RMK A01 T01591022  RH  029%=      5-min Rain = 0
KMD1 190549Z 29015KT 16/M02 A299 RMK A01 T01581022  RH  029%=      5-min Rain = 0
KMD1 190550Z 29013KT 16/M02 A299 RMK A01 T01591024  RH  029%=      5-min Rain = 0
KMD1 190551Z 30013KT 16/M03 A299 RMK A01 T01591025  RH  028%=      5-min Rain = 0
KMD1 190552Z 29011KT 16/M02 A299 RMK A01 T01591024  RH  028%=      5-min Rain = 0
KMD1 190553Z 29013KT 16/M02 A299 RMK A01 T01591022  RH  029%=      5-min Rain = 0
KMD1 190554Z 30012KT 16/M03 A299 RMK A01 T01591026  RH  028%=      5-min Rain = 0
KMD1 190555Z 29012KT 16/M02 A299 RMK A01 T01591021  RH  029%=      5-min Rain = 0
KMD1 190556Z 29012KT 16/M02 A299 RMK A01 T01581020  RH  029%=      5-min Rain = 0
KMD1 190557Z 30012KT 16/M02 A299 RMK A01 T01571021  RH  029%=      5-min Rain = 0
KMD1 190558Z 31017KT 16/M02 A299 RMK A01 T01571023  RH  029%=      5-min Rain = 0
KMD1 190559Z 30013G19KT 16/M02 A299 RMK A01 T01571021  RH  029%=      5-min Rain = 0

Page generated in 0.0335 seconds.